FR5115 / 9H-QBQ 7700 Squawk Report (4th of December, 2022)

Time Lat Lon Altitude Heading Speed Vertical Rate
2022-12-04 14:28:25 GMT 55.037758 -1.701362 0 270 17 0
2022-12-04 14:27:51 GMT 55.037991 -1.697186 0 255 15 0
2022-12-04 14:27:39 GMT 55.038219 -1.695792 0 250 17 0
2022-12-04 14:27:33 GMT 55.038403 -1.694944 0 247 18 0
2022-12-04 14:27:23 GMT 55.038757 -1.693580 0 244 20 0
2022-12-04 14:27:13 GMT 55.039112 -1.692218 0 244 22 0
2022-12-04 14:27:02 GMT 55.039593 -1.690420 0 244 24 0
2022-12-04 14:26:52 GMT 55.040051 -1.688690 0 244 25 0
2022-12-04 14:26:42 GMT 55.040504 -1.686984 0 244 21 0
2022-12-04 14:26:32 GMT 55.040886 -1.685548 0 244 18 0
2022-12-04 14:26:22 GMT 55.041203 -1.684321 0 244 15 0
2022-12-04 14:26:17 GMT 55.041351 -1.683780 0 244 12 0
2022-12-04 14:26:13 GMT 55.041458 -1.683363 0 253 10 0
2022-12-04 14:26:00 GMT 55.041447 -1.682544 0 317 11 0
2022-12-04 14:25:42 GMT 55.040474 -1.682908 0 36 23 0
2022-12-04 14:25:32 GMT 55.039593 -1.684038 0 45 24 0
2022-12-04 14:25:16 GMT 55.038185 -1.688836 0 64 88 0
2022-12-04 14:25:02 GMT 55.034775 -1.701831 25 65 132 -576
2022-12-04 14:24:59 GMT 55.034134 -1.704173 25 65 132 -576
2022-12-04 14:24:51 GMT 55.032005 -1.712203 125 65 130 -768
2022-12-04 14:24:44 GMT 55.030376 -1.718278 200 65 127 -704
2022-12-04 14:24:41 GMT 55.029602 -1.721299 225 64 127 -704
2022-12-04 14:24:33 GMT 55.027538 -1.729015 350 64 127 -768
2022-12-04 14:24:26 GMT 55.025665 -1.735840 450 64 127 -704
2022-12-04 14:24:23 GMT 55.025024 -1.738170 475 65 126 -640
2022-12-04 14:24:18 GMT 55.023769 -1.743081 525 65 124 -640
2022-12-04 14:24:13 GMT 55.022556 -1.747575 575 65 124 -640
2022-12-04 14:24:03 GMT 55.019989 -1.757328 700 65 125 -640
2022-12-04 14:23:52 GMT 55.017517 -1.766618 825 65 125 -640
2022-12-04 14:23:48 GMT 55.016647 -1.769930 850 65 124 -768
2022-12-04 14:23:45 GMT 55.015823 -1.772919 900 65 123 -576
2022-12-04 14:23:41 GMT 55.014549 -1.777621 950 65 124 -768
2022-12-04 14:23:35 GMT 55.013443 -1.781885 1,000 65 126 -768
2022-12-04 14:23:32 GMT 55.012642 -1.785112 1,050 65 128 -832
2022-12-04 14:23:25 GMT 55.010880 -1.791660 1,125 64 133 -704
2022-12-04 14:23:22 GMT 55.010082 -1.794600 1,175 64 134 -832
2022-12-04 14:23:14 GMT 55.008087 -1.802162 1,275 65 137 -768
2022-12-04 14:23:11 GMT 55.007381 -1.804671 1,300 64 139 -704
2022-12-04 14:23:02 GMT 55.004608 -1.815006 1,425 65 141 -832
2022-12-04 14:22:54 GMT 55.002731 -1.822276 1,525 65 141 -832
2022-12-04 14:22:51 GMT 55.001907 -1.825508 1,575 65 141 -832
2022-12-04 14:22:45 GMT 54.999985 -1.832859 1,675 65 141 -832
2022-12-04 14:22:41 GMT 54.999161 -1.836009 1,725 65 140 -640
2022-12-04 14:22:34 GMT 54.997284 -1.843360 1,775 65 140 -576
2022-12-04 14:22:31 GMT 54.996368 -1.846915 1,825 66 141 -640
2022-12-04 14:22:24 GMT 54.994492 -1.854104 1,875 65 143 -576
2022-12-04 14:22:20 GMT 54.993603 -1.857439 1,925 64 143 -832
2022-12-04 14:22:14 GMT 54.991608 -1.864687 2,050 63 143 -1024
2022-12-04 14:22:10 GMT 54.990555 -1.868484 2,100 63 144 -960
2022-12-04 14:22:04 GMT 54.988712 -1.874834 2,175 61 145 -768
2022-12-04 14:22:00 GMT 54.987671 -1.878097 2,225 59 146 -768
2022-12-04 14:21:54 GMT 54.985291 -1.884963 2,325 58 147 -1088
2022-12-04 14:21:51 GMT 54.984154 -1.888317 2,375 59 148 -896
2022-12-04 14:21:48 GMT 54.983219 -1.891063 2,900 48 154 -1024
2022-12-04 14:21:43 GMT 54.981583 -1.895546 2,475 55 150 -960
2022-12-04 14:21:39 GMT 54.979916 -1.899553 2,550 50 152 -832
2022-12-04 14:21:34 GMT 54.977215 -1.905212 2,650 47 153 -1024
2022-12-04 14:21:29 GMT 54.975075 -1.909291 2,900 48 154 -1024
2022-12-04 14:21:23 GMT 54.972420 -1.914368 2,800 47 156 -896
2022-12-04 14:21:20 GMT 54.969070 -1.920111 2,925 40 159 -896
2022-12-04 14:21:17 GMT 54.969070 -1.920111 2,900 35 162 -1088
2022-12-04 14:21:13 GMT 54.966881 -1.922691 2,975 30 165 -960
2022-12-04 14:21:10 GMT 54.964645 -1.924869 3,050 28 166 -1216
2022-12-04 14:21:07 GMT 54.963043 -1.926404 3,075 15 172 -1408
2022-12-04 14:21:03 GMT 54.959663 -1.929183 3,225 0 181 -1216
2022-12-04 14:21:00 GMT 54.951691 -1.931493 3,475 6 177 -1152
2022-12-04 14:20:53 GMT 54.951691 -1.931493 3,425 356 183 -1344
2022-12-04 14:20:48 GMT 54.947433 -1.930443 3,550 345 190 -1280
2022-12-04 14:20:43 GMT 54.943222 -1.927939 3,625 336 197 -832
2022-12-04 14:20:39 GMT 54.936905 -1.920669 3,725 317 215 -512
2022-12-04 14:20:34 GMT 54.936905 -1.920669 3,775 318 211 -576
2022-12-04 14:20:31 GMT 54.934666 -1.917197 3,775 318 211 -576
2022-12-04 14:20:28 GMT 54.932419 -1.913560 3,850 317 215 -512
2022-12-04 14:20:22 GMT 54.928242 -1.906711 3,850 318 218 -640
2022-12-04 14:20:19 GMT 54.925095 -1.901604 3,925 318 220 -704
2022-12-04 14:20:12 GMT 54.920513 -1.894226 3,950 318 225 -320
2022-12-04 14:20:08 GMT 54.912506 -1.881492 4,125 319 242 -1280
2022-12-04 14:20:02 GMT 54.912506 -1.881492 4,050 318 232 -704
2022-12-04 14:19:58 GMT 54.904312 -1.868425 4,125 319 242 -1280
2022-12-04 14:19:52 GMT 54.904312 -1.868425 4,150 318 239 -704
2022-12-04 14:19:47 GMT 54.900543 -1.862516 4,200 318 242 -768
2022-12-04 14:19:42 GMT 54.896122 -1.855524 4,300 318 242 -1152
2022-12-04 14:19:38 GMT 54.892319 -1.849500 4,375 318 242 -1280
2022-12-04 14:19:32 GMT 54.887882 -1.842624 4,600 319 242 -1216
2022-12-04 14:19:27 GMT 54.883759 -1.836171 4,600 319 242 -1152
2022-12-04 14:19:24 GMT 54.881104 -1.832132 4,650 319 242 -1216
2022-12-04 14:19:20 GMT 54.877762 -1.826881 4,750 319 242 -1152
2022-12-04 14:19:17 GMT 54.875381 -1.823165 4,800 319 242 -1152
2022-12-04 14:19:13 GMT 54.872520 -1.818737 4,875 319 242 -1152
2022-12-04 14:19:10 GMT 54.869678 -1.814326 4,925 319 242 -1088
2022-12-04 14:19:06 GMT 54.866409 -1.809271 5,000 318 243 -1024
2022-12-04 14:19:02 GMT 54.862244 -1.802727 5,100 318 244 -896
2022-12-04 14:18:56 GMT 54.858078 -1.796103 5,150 317 246 -704
2022-12-04 14:18:51 GMT 54.854050 -1.789317 5,225 313 249 -576
2022-12-04 14:18:47 GMT 54.850250 -1.781966 5,250 310 253 -704
2022-12-04 14:18:41 GMT 54.846542 -1.774050 5,375 309 254 -1024
2022-12-04 14:18:38 GMT 54.844357 -1.769298 5,375 309 254 -1024
2022-12-04 14:18:35 GMT 54.842213 -1.764554 5,425 309 254 -960
2022-12-04 14:18:32 GMT 54.839375 -1.758395 5,475 309 256 -704
2022-12-04 14:18:29 GMT 54.838024 -1.755399 5,500 309 257 -512
2022-12-04 14:18:25 GMT 54.834579 -1.747742 5,700 310 280 -384
2022-12-04 14:18:20 GMT 54.830612 -1.738990 5,575 309 264 -448
2022-12-04 14:18:16 GMT 54.827827 -1.732927 5,600 309 267 -384
2022-12-04 14:18:13 GMT 54.825760 -1.728327 5,600 309 269 -448
2022-12-04 14:18:09 GMT 54.822662 -1.721608 5,650 309 271 -448
2022-12-04 14:18:06 GMT 54.819870 -1.715532 5,675 309 273 -576
2022-12-04 14:18:03 GMT 54.817589 -1.710538 5,700 309 275 -512
2022-12-04 14:18:00 GMT 54.814934 -1.704878 5,725 310 277 -448
2022-12-04 14:17:55 GMT 54.811676 -1.697970 5,775 311 283 -576
2022-12-04 14:17:52 GMT 54.808369 -1.691062 5,775 311 283 -576
2022-12-04 14:17:49 GMT 54.806229 -1.686568 5,800 311 284 -640
2022-12-04 14:17:46 GMT 54.803055 -1.680181 5,950 311 286 -1344
2022-12-04 14:17:39 GMT 54.797745 -1.669356 5,950 311 286 -1344
2022-12-04 14:17:35 GMT 54.794498 -1.662847 6,075 311 285 -1664
2022-12-04 14:17:32 GMT 54.791656 -1.656997 6,175 311 285 -1600
2022-12-04 14:17:29 GMT 54.789001 -1.651665 6,225 311 285 -1472
2022-12-04 14:17:25 GMT 54.782207 -1.637878 6,375 311 285 -576
2022-12-04 14:17:21 GMT 54.782207 -1.637878 6,350 311 285 -512
2022-12-04 14:17:18 GMT 54.780159 -1.633717 6,375 311 285 -448
2022-12-04 14:17:15 GMT 54.777054 -1.627431 6,400 311 285 -384
2022-12-04 14:17:11 GMT 54.773411 -1.620150 6,425 311 285 -384
2022-12-04 14:17:08 GMT 54.771606 -1.616444 6,450 311 285 -384
2022-12-04 14:17:05 GMT 54.768429 -1.609996 6,475 311 284 -384
2022-12-04 14:17:02 GMT 54.766426 -1.605835 6,475 311 284 -384
2022-12-04 14:16:58 GMT 54.763168 -1.599260 6,500 311 284 -448
2022-12-04 14:16:55 GMT 54.760162 -1.593098 6,550 311 286 -576
2022-12-04 14:16:52 GMT 54.757908 -1.588440 6,550 311 286 -576
2022-12-04 14:16:49 GMT 54.754761 -1.582031 6,600 311 287 -896
2022-12-04 14:16:45 GMT 54.750690 -1.573708 6,700 311 287 -1472
2022-12-04 14:16:41 GMT 54.748032 -1.568379 6,775 311 286 -1728
2022-12-04 14:16:38 GMT 54.745651 -1.563613 6,850 311 286 -1728
2022-12-04 14:16:34 GMT 54.741894 -1.556064 7,000 311 285 -1728
2022-12-04 14:16:31 GMT 54.737137 -1.546406 7,100 311 285 -1472
2022-12-04 14:16:28 GMT 54.737137 -1.546406 7,125 311 285 -1344
2022-12-04 14:16:24 GMT 54.732815 -1.537670 7,250 311 286 -1408
2022-12-04 14:16:21 GMT 54.730728 -1.533481 7,275 311 286 -1408
2022-12-04 14:16:18 GMT 54.728161 -1.528182 7,350 311 287 -1472
2022-12-04 14:16:15 GMT 54.725647 -1.523061 7,450 311 288 -1344
2022-12-04 14:16:12 GMT 54.723412 -1.518527 7,475 311 288 -1280
2022-12-04 14:16:08 GMT 54.719742 -1.511024 7,575 311 288 -1280
2022-12-04 14:16:04 GMT 54.716663 -1.504794 7,675 309 289 -1408
2022-12-04 14:16:01 GMT 54.713451 -1.497969 7,725 309 289 -1600
2022-12-04 14:15:57 GMT 54.710449 -1.491313 7,800 308 290 -1664
2022-12-04 14:15:54 GMT 54.708282 -1.486317 7,975 306 290 0
2022-12-04 14:15:51 GMT 54.704884 -1.478244 8,025 306 291 -1472
2022-12-04 14:15:46 GMT 54.701797 -1.470714 8,100 306 291 -1344
2022-12-04 14:15:42 GMT 54.698547 -1.462878 8,400 306 292 -1664
2022-12-04 14:15:39 GMT 54.696133 -1.457103 8,325 306 293 -1920
2022-12-04 14:15:36 GMT 54.693710 -1.451277 8,375 306 292 -1728
2022-12-04 14:15:33 GMT 54.691040 -1.444864 8,525 306 292 -1408
2022-12-04 14:15:30 GMT 54.689198 -1.440374 8,525 306 293 -1408
2022-12-04 14:15:28 GMT 54.687286 -1.435797 8,550 306 293 -1408
2022-12-04 14:15:25 GMT 54.685593 -1.431696 8,700 306 293 -1408
2022-12-04 14:15:22 GMT 54.682617 -1.424668 8,800 306 295 -1280
2022-12-04 14:15:19 GMT 54.680210 -1.418984 8,800 306 295 -1216
2022-12-04 14:15:18 GMT 54.679413 -1.416994 8,825 306 295 -1280
2022-12-04 14:15:17 GMT 54.678722 -1.415405 8,825 306 295 0
2022-12-04 14:15:14 GMT 54.676071 -1.408997 8,900 306 294 -1536
2022-12-04 14:15:12 GMT 54.674393 -1.405002 8,975 306 294 -1728
2022-12-04 14:15:10 GMT 54.670715 -1.396179 9,100 306 294 -1536
2022-12-04 14:15:07 GMT 54.670715 -1.396179 9,100 306 294 -1536
2022-12-04 14:15:04 GMT 54.668015 -1.389771 9,175 306 293 -1664
2022-12-04 14:15:01 GMT 54.666092 -1.385085 9,250 306 293 -1856
2022-12-04 14:15:00 GMT 54.665451 -1.383470 9,275 306 293 -1856
2022-12-04 14:14:59 GMT 54.664246 -1.380615 9,325 306 293 -1856
2022-12-04 14:14:58 GMT 54.663406 -1.378618 9,375 306 293 -1600
2022-12-04 14:14:55 GMT 54.661079 -1.372958 9,450 306 293 -1344
2022-12-04 14:14:54 GMT 54.659122 -1.368214 9,500 306 294 -896
2022-12-04 14:14:50 GMT 54.656841 -1.362721 9,525 306 295 -512
2022-12-04 14:14:47 GMT 54.655399 -1.359308 9,550 306 295 -576
2022-12-04 14:14:45 GMT 54.653687 -1.355115 9,550 306 296 -576
2022-12-04 14:14:44 GMT 54.652863 -1.353096 9,575 306 296 -576
2022-12-04 14:14:43 GMT 54.651161 -1.349071 9,575 306 297 -576
2022-12-04 14:14:40 GMT 54.650391 -1.347198 9,600 306 301 -704
2022-12-04 14:14:39 GMT 54.648926 -1.343644 9,625 306 301 -704
2022-12-04 14:14:37 GMT 54.647003 -1.339040 9,675 306 301 -704
2022-12-04 14:14:34 GMT 54.641155 -1.325018 9,750 306 303 -640
2022-12-04 14:14:30 GMT 54.641155 -1.325018 9,750 306 305 -640
2022-12-04 14:14:27 GMT 54.639084 -1.320137 9,750 307 307 0
2022-12-04 14:14:26 GMT 54.637383 -1.316029 9,750 307 307 -704
2022-12-04 14:14:24 GMT 54.636547 -1.314031 9,775 307 308 -768
2022-12-04 14:14:23 GMT 54.632950 -1.305596 9,825 307 309 -896
2022-12-04 14:14:20 GMT 54.632950 -1.305596 9,825 307 311 -768
2022-12-04 14:14:16 GMT 54.628540 -1.295222 9,900 307 313 -512
2022-12-04 14:14:13 GMT 54.626862 -1.291310 9,900 307 314 0
2022-12-04 14:14:12 GMT 54.625854 -1.288955 9,925 307 316 -512
2022-12-04 14:14:11 GMT 54.624985 -1.286935 9,925 307 316 -512
2022-12-04 14:14:07 GMT 54.621506 -1.278857 9,975 307 318 -576
2022-12-04 14:14:03 GMT 54.615551 -1.265176 10,000 307 322 -512
2022-12-04 14:14:00 GMT 54.615551 -1.265176 10,025 307 323 -576
2022-12-04 14:13:58 GMT 54.612526 -1.258184 10,050 307 325 -576
2022-12-04 14:13:57 GMT 54.612526 -1.258184 10,050 307 325 -576
2022-12-04 14:13:53 GMT 54.609035 -1.250194 10,100 307 328 -640
2022-12-04 14:13:52 GMT 54.608009 -1.247864 10,100 307 328 -640
2022-12-04 14:13:50 GMT 54.606148 -1.243536 10,125 307 330 -704
2022-12-04 14:13:47 GMT 54.603653 -1.237820 10,175 307 332 -832
2022-12-04 14:13:46 GMT 54.602703 -1.235712 10,175 307 332 -896
2022-12-04 14:13:45 GMT 54.601822 -1.233619 10,200 307 333 -960
2022-12-04 14:13:42 GMT 54.598846 -1.226753 10,250 307 335 -1280
2022-12-04 14:13:40 GMT 54.596878 -1.222310 10,275 307 335 -1280
2022-12-04 14:13:37 GMT 54.593903 -1.215487 10,375 308 335 -1600
2022-12-04 14:13:35 GMT 54.591438 -1.209745 10,450 308 337 0
2022-12-04 14:13:33 GMT 54.590508 -1.207664 10,475 308 337 -1280
2022-12-04 14:13:32 GMT 54.589577 -1.205583 10,500 308 337 -1024
2022-12-04 14:13:29 GMT 54.587631 -1.201145 10,525 308 339 -768
2022-12-04 14:13:27 GMT 54.585388 -1.196056 10,575 308 339 -704
2022-12-04 14:13:25 GMT 54.583710 -1.192266 10,575 308 342 -704
2022-12-04 14:13:24 GMT 54.582870 -1.190269 10,600 308 342 -704
2022-12-04 14:13:23 GMT 54.581863 -1.188058 10,600 308 343 -704
2022-12-04 14:13:21 GMT 54.579380 -1.182362 10,650 308 345 -704
2022-12-04 14:13:18 GMT 54.577057 -1.177072 10,675 308 347 -640
2022-12-04 14:13:17 GMT 54.575146 -1.172707 10,675 307 349 -640
2022-12-04 14:13:14 GMT 54.572071 -1.165716 10,725 307 352 -576
2022-12-04 14:13:12 GMT 54.571186 -1.163635 10,725 307 352 -576
2022-12-04 14:13:11 GMT 54.570145 -1.161320 10,725 308 353 -576
2022-12-04 14:13:09 GMT 54.567810 -1.155907 10,775 308 357 -576
2022-12-04 14:13:06 GMT 54.564011 -1.147344 10,800 307 359 -576
2022-12-04 14:13:05 GMT 54.564011 -1.147344 10,800 307 359 -576
2022-12-04 14:13:03 GMT 54.558849 -1.135587 10,850 308 362 -576
2022-12-04 14:13:00 GMT 54.558849 -1.135587 10,850 308 364 -576
2022-12-04 14:12:58 GMT 54.557373 -1.132238 10,850 308 364 -576
2022-12-04 14:12:57 GMT 54.555725 -1.128522 10,850 308 366 -576
2022-12-04 14:12:55 GMT 54.553684 -1.123851 10,875 308 370 -704
2022-12-04 14:12:52 GMT 54.551559 -1.119071 10,900 308 370 -704
2022-12-04 14:12:51 GMT 54.547852 -1.110589 10,950 308 371 -832
2022-12-04 14:12:49 GMT 54.547852 -1.110589 10,950 308 373 -896
2022-12-04 14:12:47 GMT 54.545563 -1.105418 11,000 308 375 -1088
2022-12-04 14:12:45 GMT 54.543301 -1.100297 11,050 308 376 -1344
2022-12-04 14:12:44 GMT 54.542130 -1.097663 11,075 308 376 -1408
2022-12-04 14:12:43 GMT 54.541065 -1.095304 11,100 308 377 -1728
2022-12-04 14:12:41 GMT 54.538879 -1.090476 11,150 308 377 -1856
2022-12-04 14:12:39 GMT 54.537277 -1.086839 11,200 308 378 -2048
2022-12-04 14:12:38 GMT 54.536133 -1.084334 11,250 308 377 -2304
2022-12-04 14:12:37 GMT 54.534668 -1.081103 11,300 309 378 -2432
2022-12-04 14:12:35 GMT 54.532547 -1.076410 11,375 309 378 -2432
2022-12-04 14:12:34 GMT 54.531479 -1.074080 11,425 309 378 -2368
2022-12-04 14:12:32 GMT 54.529175 -1.068986 11,500 309 379 -2240
2022-12-04 14:12:30 GMT 54.527985 -1.066401 11,550 309 379 -2240
2022-12-04 14:12:28 GMT 54.524689 -1.059292 11,650 309 380 -2112
2022-12-04 14:12:27 GMT 54.522949 -1.055495 11,700 309 380 -2048
2022-12-04 14:12:25 GMT 54.521393 -1.052102 11,750 309 381 -1984
2022-12-04 14:12:24 GMT 54.520798 -1.050810 11,775 309 381 -1984
2022-12-04 14:12:22 GMT 54.518097 -1.044994 11,850 309 382 -1984
2022-12-04 14:12:21 GMT 54.516998 -1.042536 11,900 309 382 -2048
2022-12-04 14:12:19 GMT 54.515808 -1.039904 11,925 309 382 -2048
2022-12-04 14:12:18 GMT 54.514160 -1.036431 11,975 309 382 -2176
2022-12-04 14:12:16 GMT 54.511826 -1.031342 12,050 309 382 -2240
2022-12-04 14:12:14 GMT 54.509689 -1.026722 12,100 309 383 -2304
2022-12-04 14:12:12 GMT 54.507408 -1.021895 12,200 312 384 -2368
2022-12-04 14:12:10 GMT 54.504711 -1.016319 12,300 312 384 -2368
2022-12-04 14:12:09 GMT 54.503632 -1.014135 12,350 312 384 -2304
2022-12-04 14:12:07 GMT 54.501297 -1.009611 12,400 312 384 -2240
2022-12-04 14:12:06 GMT 54.500198 -1.007592 12,450 313 385 -2112
2022-12-04 14:12:04 GMT 54.498657 -1.004666 12,500 313 385 -2112
2022-12-04 14:12:02 GMT 54.495121 -0.998174 12,600 313 385 -2048
2022-12-04 14:12:01 GMT 54.493881 -0.995878 12,625 313 387 -2048
2022-12-04 14:11:59 GMT 54.491913 -0.992162 12,675 313 387 -2048
2022-12-04 14:11:58 GMT 54.490631 -0.989820 12,725 313 387 -2112
2022-12-04 14:11:56 GMT 54.488186 -0.985274 12,800 313 388 -2112
2022-12-04 14:11:54 GMT 54.483948 -0.977460 12,925 313 389 -2176
2022-12-04 14:11:52 GMT 54.483250 -0.976119 12,925 313 389 -2112
2022-12-04 14:11:50 GMT 54.480690 -0.971458 13,000 313 389 -2112
2022-12-04 14:11:48 GMT 54.476593 -0.963801 13,125 314 391 -1984
2022-12-04 14:11:46 GMT 54.475388 -0.961627 13,150 314 391 -1920
2022-12-04 14:11:44 GMT 54.474125 -0.959306 13,200 314 391 -1920
2022-12-04 14:11:42 GMT 54.471817 -0.955084 13,250 314 392 -1920
2022-12-04 14:11:41 GMT 54.470634 -0.952898 13,275 314 393 -1920
2022-12-04 14:11:40 GMT 54.467327 -0.946822 13,400 314 394 -1920
2022-12-04 14:11:37 GMT 54.465652 -0.943825 13,400 314 394 -1984
2022-12-04 14:11:36 GMT 54.463230 -0.939331 13,475 314 394 -2048
2022-12-04 14:11:34 GMT 54.461517 -0.936181 13,525 314 395 -2112
2022-12-04 14:11:33 GMT 54.457993 -0.929718 13,600 314 396 -2112
2022-12-04 14:11:31 GMT 54.457993 -0.929718 13,625 314 396 -2112
2022-12-04 14:11:29 GMT 54.451263 -0.917520 13,800 314 396 -2176
2022-12-04 14:11:26 GMT 54.451263 -0.917520 13,800 314 396 -2240
2022-12-04 14:11:24 GMT 54.449265 -0.913863 13,875 314 397 -2368
2022-12-04 14:11:22 GMT 54.444889 -0.905873 14,000 314 398 -2368
2022-12-04 14:11:21 GMT 54.441120 -0.898965 14,100 314 399 -2368
2022-12-04 14:11:18 GMT 54.441120 -0.898965 14,125 314 399 -2240
2022-12-04 14:11:17 GMT 54.439911 -0.896678 14,150 314 399 -2176
2022-12-04 14:11:15 GMT 54.434975 -0.887729 14,275 314 399 -2048
2022-12-04 14:11:13 GMT 54.434975 -0.887729 14,300 313 400 -1984
2022-12-04 14:11:11 GMT 54.432541 -0.883188 14,350 313 401 -1920
2022-12-04 14:11:10 GMT 54.431213 -0.880764 14,400 313 402 -1984
2022-12-04 14:11:07 GMT 54.427185 -0.873332 14,500 313 402 -2112
2022-12-04 14:11:06 GMT 54.425079 -0.869455 14,575 313 404 -2432
2022-12-04 14:11:04 GMT 54.423340 -0.866224 14,625 313 404 -2432
2022-12-04 14:11:02 GMT 54.421288 -0.862427 14,675 313 404 -2496
2022-12-04 14:10:59 GMT 54.417286 -0.855103 14,825 314 403 -2496
2022-12-04 14:10:57 GMT 54.414909 -0.850691 14,900 314 404 -2496
2022-12-04 14:10:56 GMT 54.413609 -0.848361 14,925 314 404 -2496
2022-12-04 14:10:54 GMT 54.406952 -0.836126 15,100 314 405 -2432
2022-12-04 14:10:51 GMT 54.406952 -0.836126 15,100 314 405 -2368
2022-12-04 14:10:48 GMT 54.402992 -0.828968 15,275 314 406 -2304
2022-12-04 14:10:46 GMT 54.400406 -0.824217 15,350 314 406 -2304
2022-12-04 14:10:45 GMT 54.398197 -0.820229 15,400 314 407 -2304
2022-12-04 14:10:43 GMT 54.396881 -0.817835 15,450 314 407 -2304
2022-12-04 14:10:41 GMT 54.394135 -0.812907 15,500 314 407 -2304
2022-12-04 14:10:39 GMT 54.391541 -0.808161 15,600 314 408 -2368
2022-12-04 14:10:36 GMT 54.387543 -0.800952 15,725 314 408 -2432
2022-12-04 14:10:34 GMT 54.384796 -0.796024 15,800 314 409 -2432
2022-12-04 14:10:33 GMT 54.383606 -0.793843 15,850 314 409 -2432
2022-12-04 14:10:32 GMT 54.380836 -0.788768 15,950 314 409 -2432
2022-12-04 14:10:30 GMT 54.379623 -0.786604 15,975 314 409 -2432
2022-12-04 14:10:29 GMT 54.378368 -0.784357 16,025 314 410 -2432
2022-12-04 14:10:27 GMT 54.375824 -0.779706 16,100 314 410 -2496
2022-12-04 14:10:26 GMT 54.374634 -0.777525 16,150 314 410 -2496
2022-12-04 14:10:24 GMT 54.371758 -0.772289 16,250 314 411 -2560
2022-12-04 14:10:23 GMT 54.370422 -0.769932 16,275 314 411 -2560
2022-12-04 14:10:22 GMT 54.366356 -0.762468 16,400 314 411 -2496
2022-12-04 14:10:20 GMT 54.366356 -0.762468 16,400 314 411 -2496
2022-12-04 14:10:18 GMT 54.364307 -0.758806 16,475 314 412 -2432
2022-12-04 14:10:17 GMT 54.362400 -0.755310 16,525 314 412 -2368
2022-12-04 14:10:16 GMT 54.361130 -0.753048 16,575 314 413 -2368
2022-12-04 14:10:15 GMT 54.359932 -0.750816 16,600 314 413 -2368
2022-12-04 14:10:12 GMT 54.355698 -0.743075 16,725 313 413 -2368
2022-12-04 14:10:11 GMT 54.353321 -0.738664 16,800 313 413 -2432
2022-12-04 14:10:09 GMT 54.351879 -0.736001 16,850 313 414 -2496
2022-12-04 14:10:08 GMT 54.349182 -0.730995 16,950 312 414 -2624
2022-12-04 14:10:06 GMT 54.348450 -0.729541 16,975 312 415 -2624
2022-12-04 14:10:04 GMT 54.345409 -0.723600 17,050 311 414 -2624
2022-12-04 14:10:03 GMT 54.343506 -0.719685 17,150 310 414 -2560
2022-12-04 14:10:01 GMT 54.341682 -0.715942 17,200 310 414 -2560
2022-12-04 14:10:00 GMT 54.338196 -0.708699 17,300 310 415 -2624
2022-12-04 14:09:58 GMT 54.338196 -0.708699 17,325 310 415 -2624
2022-12-04 14:09:56 GMT 54.335773 -0.703541 17,400 310 415 -2624
2022-12-04 14:09:54 GMT 54.333164 -0.697965 17,525 310 415 -2624
2022-12-04 14:09:52 GMT 54.331070 -0.693637 17,600 310 415 -2560
2022-12-04 14:09:51 GMT 54.329453 -0.690119 17,650 310 416 -2560
2022-12-04 14:09:49 GMT 54.327164 -0.685353 17,700 310 416 -2560
2022-12-04 14:09:48 GMT 54.325996 -0.682900 17,775 310 417 -2560
2022-12-04 14:09:46 GMT 54.323364 -0.677356 17,900 310 417 -2496
2022-12-04 14:09:43 GMT 54.319748 -0.669762 17,975 310 417 -2560
2022-12-04 14:09:42 GMT 54.318687 -0.667586 18,025 310 417 -2560
2022-12-04 14:09:41 GMT 54.316040 -0.662007 18,125 310 418 -2496
2022-12-04 14:09:38 GMT 54.314117 -0.657968 18,200 310 418 -2496
2022-12-04 14:09:35 GMT 54.310959 -0.651356 18,300 310 419 -2496
2022-12-04 14:09:34 GMT 54.310261 -0.649858 18,325 310 419 -2496
2022-12-04 14:09:32 GMT 54.307755 -0.644720 18,400 310 419 -2496
2022-12-04 14:09:31 GMT 54.306473 -0.641973 18,450 310 419 -2496
2022-12-04 14:09:30 GMT 54.303280 -0.635376 18,550 310 420 -2432
2022-12-04 14:09:27 GMT 54.299606 -0.627836 18,675 310 421 -2368
2022-12-04 14:09:25 GMT 54.298344 -0.625139 18,700 310 421 -2304
2022-12-04 14:09:23 GMT 54.294479 -0.617173 18,825 310 421 -2240
2022-12-04 14:09:19 GMT 54.290848 -0.609658 18,925 310 423 -2240
2022-12-04 14:09:17 GMT 54.288483 -0.604814 19,000 310 423 -2304
2022-12-04 14:09:16 GMT 54.287216 -0.602251 19,050 310 423 -2304
2022-12-04 14:09:15 GMT 54.284180 -0.595928 19,150 310 424 -2368
2022-12-04 14:09:13 GMT 54.282944 -0.593423 19,175 310 425 -2368
2022-12-04 14:09:10 GMT 54.279537 -0.586354 19,300 310 426 -2368
2022-12-04 14:09:08 GMT 54.277130 -0.581412 19,375 310 426 -2368
2022-12-04 14:09:07 GMT 54.275848 -0.578823 19,400 310 426 -2368
2022-12-04 14:09:05 GMT 54.273300 -0.573470 19,475 310 428 -2304
2022-12-04 14:09:04 GMT 54.271900 -0.570643 19,525 310 428 -2304
2022-12-04 14:09:03 GMT 54.269386 -0.565392 19,600 310 428 -2304
2022-12-04 14:09:01 GMT 54.268158 -0.562971 19,650 310 429 -2304
2022-12-04 14:09:00 GMT 54.265526 -0.557475 19,725 310 429 -2368
2022-12-04 14:08:58 GMT 54.263992 -0.554260 19,825 310 430 0
2022-12-04 14:08:57 GMT 54.261292 -0.548767 19,850 310 430 -2432
2022-12-04 14:08:54 GMT 54.259323 -0.544686 19,925 310 430 -2432
2022-12-04 14:08:53 GMT 54.258682 -0.543339 19,950 310 431 -2368
2022-12-04 14:08:51 GMT 54.255329 -0.536472 20,050 310 432 -2240
2022-12-04 14:08:49 GMT 54.252823 -0.531189 20,100 310 432 -2240
2022-12-04 14:08:48 GMT 54.251450 -0.528364 20,150 309 433 -2304
2022-12-04 14:08:47 GMT 54.250160 -0.525647 20,200 309 433 -2304
2022-12-04 14:08:46 GMT 54.247513 -0.519967 20,275 307 434 -2496
2022-12-04 14:08:43 GMT 54.246159 -0.517004 20,325 305 434 -2624
2022-12-04 14:08:41 GMT 54.242661 -0.508745 20,500 304 434 -2752
2022-12-04 14:08:39 GMT 54.241562 -0.505920 20,500 303 434 -2752
2022-12-04 14:08:38 GMT 54.240417 -0.502938 20,550 302 434 -2688
2022-12-04 14:08:37 GMT 54.238266 -0.496974 20,650 301 434 -2688
2022-12-04 14:08:35 GMT 54.237221 -0.493900 20,750 301 434 -2688
2022-12-04 14:08:33 GMT 54.235016 -0.487558 20,800 301 434 -2688
2022-12-04 14:08:31 GMT 54.233589 -0.483318 20,850 301 435 -2624
2022-12-04 14:08:30 GMT 54.231075 -0.475967 20,925 301 435 -2624
2022-12-04 14:08:29 GMT 54.231075 -0.475967 20,950 301 435 -2560
2022-12-04 14:08:28 GMT 54.229935 -0.472491 21,000 301 436 -2624
2022-12-04 14:08:27 GMT 54.228748 -0.469019 21,075 301 436 -2624
2022-12-04 14:08:26 GMT 54.226841 -0.463445 21,150 300 436 -2752
2022-12-04 14:08:24 GMT 54.225769 -0.460214 21,200 300 436 -2816
2022-12-04 14:08:22 GMT 54.224304 -0.456011 21,250 300 436 -2944
2022-12-04 14:08:21 GMT 54.222885 -0.451695 21,325 300 437 -3008
2022-12-04 14:08:19 GMT 54.220963 -0.446123 21,425 300 437 -3008
2022-12-04 14:08:18 GMT 54.217251 -0.435010 21,600 300 438 -2624
2022-12-04 14:08:16 GMT 54.217251 -0.435010 21,600 300 438 -2624
2022-12-04 14:08:14 GMT 54.215286 -0.429173 21,650 300 438 -2496
2022-12-04 14:08:12 GMT 54.213913 -0.425014 21,725 300 438 -2432
2022-12-04 14:08:11 GMT 54.212967 -0.422166 21,800 300 439 -2496
2022-12-04 14:08:10 GMT 54.209522 -0.411987 21,900 300 439 -2752
2022-12-04 14:08:08 GMT 54.209522 -0.411987 21,950 300 439 -3072
2022-12-04 14:08:07 GMT 54.207565 -0.406090 22,025 300 439 -3392
2022-12-04 14:08:05 GMT 54.206772 -0.403591 22,075 300 439 -3392
2022-12-04 14:08:03 GMT 54.204803 -0.397705 22,250 300 440 -3456
2022-12-04 14:07:58 GMT 54.199631 -0.382089 22,500 300 442 0
2022-12-04 14:07:57 GMT 54.197662 -0.376203 22,600 300 442 -3456
2022-12-04 14:07:55 GMT 54.196243 -0.371887 22,675 300 442 -3456
2022-12-04 14:07:54 GMT 54.195278 -0.369011 22,725 300 442 -3456
2022-12-04 14:07:51 GMT 54.192215 -0.359724 22,900 300 443 -3456
2022-12-04 14:07:49 GMT 54.188782 -0.349444 23,100 300 444 -3328
2022-12-04 14:07:46 GMT 54.186108 -0.341384 23,200 300 446 -3264
2022-12-04 14:07:45 GMT 54.186108 -0.341384 23,250 300 446 -3264
2022-12-04 14:07:43 GMT 54.183826 -0.334518 23,350 300 446 -3264
2022-12-04 14:07:41 GMT 54.182327 -0.329982 23,425 300 446 -3200
2022-12-04 14:07:38 GMT 54.179218 -0.320623 23,600 300 449 -3200
2022-12-04 14:07:37 GMT 54.177120 -0.314322 23,700 300 450 -3200
2022-12-04 14:07:34 GMT 54.175076 -0.308102 23,800 300 450 -3200
2022-12-04 14:07:33 GMT 54.172073 -0.299064 23,925 300 452 -3008
2022-12-04 14:07:31 GMT 54.172073 -0.299064 23,950 300 452 -3008
2022-12-04 14:07:29 GMT 54.170696 -0.294773 24,075 300 453 -2944
2022-12-04 14:07:27 GMT 54.167496 -0.285095 24,175 300 454 -2816
2022-12-04 14:07:26 GMT 54.165577 -0.279263 24,250 299 456 -2880
2022-12-04 14:07:24 GMT 54.164474 -0.275757 24,300 299 457 -3072
2022-12-04 14:07:22 GMT 54.160217 -0.262730 24,400 299 457 -3328
2022-12-04 14:07:20 GMT 54.160217 -0.262730 24,625 299 457 -3840
2022-12-04 14:07:17 GMT 54.158688 -0.257936 24,625 299 457 -4032
2022-12-04 14:07:15 GMT 54.155289 -0.247192 24,900 299 455 -5120
2022-12-04 14:07:12 GMT 54.153706 -0.242103 25,025 299 455 -5504
2022-12-04 14:07:10 GMT 54.151474 -0.235186 25,200 299 453 -5568
2022-12-04 14:07:08 GMT 54.146912 -0.220777 25,525 299 451 -5504
2022-12-04 14:07:06 GMT 54.146912 -0.220777 25,650 299 450 -5440
2022-12-04 14:07:05 GMT 54.146027 -0.218157 25,750 299 449 -5312
2022-12-04 14:07:02 GMT 54.143509 -0.210310 25,975 299 448 -5248
2022-12-04 14:07:00 GMT 54.141510 -0.204136 26,175 299 448 -5120
2022-12-04 14:06:59 GMT 54.140160 -0.199935 26,250 299 446 -4608
2022-12-04 14:06:58 GMT 54.138203 -0.193876 26,350 299 446 -4608
2022-12-04 14:06:56 GMT 54.137089 -0.190484 26,500 299 446 -4480
2022-12-04 14:06:55 GMT 54.136154 -0.187575 26,775 299 446 -4288
2022-12-04 14:06:53 GMT 54.130966 -0.171465 26,775 299 446 -3328
2022-12-04 14:06:50 GMT 54.130966 -0.171465 27,050 299 446 -3328
2022-12-04 14:06:47 GMT 54.127029 -0.159302 27,125 299 448 -3264
2022-12-04 14:06:45 GMT 54.126007 -0.156232 27,250 299 448 -3264
2022-12-04 14:06:43 GMT 54.124283 -0.150905 27,275 299 448 -3328
2022-12-04 14:06:42 GMT 54.123402 -0.148154 27,450 300 447 -3392
2022-12-04 14:06:40 GMT 54.121124 -0.141174 27,450 300 447 -3456
2022-12-04 14:06:38 GMT 54.116928 -0.128282 27,700 300 448 -3328
2022-12-04 14:06:36 GMT 54.116928 -0.128282 27,700 300 448 -3200
2022-12-04 14:06:35 GMT 54.115952 -0.125323 27,750 300 448 -3072
2022-12-04 14:06:33 GMT 54.113716 -0.118507 27,850 300 449 -2816
2022-12-04 14:06:32 GMT 54.113159 -0.116730 27,875 300 449 -2752
2022-12-04 14:06:31 GMT 54.110413 -0.108328 28,000 300 450 -2880
2022-12-04 14:06:28 GMT 54.108875 -0.103643 28,075 300 450 -3008
2022-12-04 14:06:26 GMT 54.106934 -0.097621 28,175 300 450 -3392
2022-12-04 14:06:25 GMT 54.104645 -0.090716 28,325 300 451 -3456
2022-12-04 14:06:21 GMT 54.102219 -0.083367 28,450 300 452 -3072
2022-12-04 14:06:20 GMT 54.100662 -0.078474 28,625 300 453 -2560
2022-12-04 14:06:18 GMT 54.098309 -0.071411 28,625 300 453 -2560
2022-12-04 14:06:16 GMT 54.096725 -0.066564 28,700 300 453 -2560
2022-12-04 14:06:15 GMT 54.094677 -0.060344 28,775 300 453 -2688
2022-12-04 14:06:13 GMT 54.093655 -0.057194 28,825 300 453 -2752
2022-12-04 14:06:12 GMT 54.092651 -0.054147 28,850 300 453 -2752
2022-12-04 14:06:11 GMT 54.090225 -0.046692 28,975 300 453 -2752
2022-12-04 14:06:07 GMT 54.087696 -0.039018 29,075 300 453 -2624
2022-12-04 14:06:06 GMT 54.086197 -0.034450 29,150 300 453 -2624
2022-12-04 14:06:05 GMT 54.085228 -0.031505 29,175 300 453 -2624
2022-12-04 14:06:03 GMT 54.082062 -0.021892 29,325 300 453 -2688
2022-12-04 14:06:01 GMT 54.080933 -0.018441 29,375 300 453 -2752
2022-12-04 14:05:59 GMT 54.079872 -0.015268 29,425 300 453 -2752
2022-12-04 14:05:58 GMT 54.076767 -0.005807 29,600 300 454 -2688
2022-12-04 14:05:56 GMT 54.076767 -0.005807 29,600 300 454 -2560
2022-12-04 14:05:55 GMT 54.073517 0.004002 29,650 300 455 -2304
2022-12-04 14:05:53 GMT 54.073517 0.004002 29,675 300 455 -2304
2022-12-04 14:05:51 GMT 54.070889 0.012036 29,775 300 456 -2240
2022-12-04 14:05:49 GMT 54.069866 0.015187 29,825 300 456 -2240
2022-12-04 14:05:46 GMT 54.063950 0.033194 30,150 300 456 -2432
2022-12-04 14:05:44 GMT 54.063950 0.033194 30,150 300 457 -2496
2022-12-04 14:05:41 GMT 54.061348 0.041037 30,150 300 457 -2496
2022-12-04 14:05:40 GMT 54.059326 0.047241 30,225 300 457 -2304
2022-12-04 14:05:37 GMT 54.057201 0.053801 30,300 300 459 -2176
2022-12-04 14:05:36 GMT 54.055992 0.057355 30,350 300 459 -1920
2022-12-04 14:05:35 GMT 54.054874 0.060829 30,450 300 459 -1920
2022-12-04 14:05:33 GMT 54.052643 0.067534 30,450 300 461 -2112
2022-12-04 14:05:32 GMT 54.051804 0.070119 30,475 300 461 -2304
2022-12-04 14:05:30 GMT 54.049667 0.076590 30,625 300 461 -2304
2022-12-04 14:05:27 GMT 54.046963 0.084659 30,650 300 461 -2624
2022-12-04 14:05:25 GMT 54.044952 0.090716 30,900 300 462 -2368
2022-12-04 14:05:22 GMT 54.040741 0.103350 30,900 300 463 -2112
2022-12-04 14:05:20 GMT 54.039513 0.107117 30,950 300 463 -2112
2022-12-04 14:05:18 GMT 54.037399 0.113552 31,025 300 463 -2176
2022-12-04 14:05:17 GMT 54.035156 0.120300 31,125 300 464 -2240
2022-12-04 14:05:14 GMT 54.032997 0.126747 31,175 300 465 -2368
2022-12-04 14:05:12 GMT 54.030949 0.132886 31,325 300 466 -2304
2022-12-04 14:05:10 GMT 54.028713 0.139591 31,325 300 466 -2304
2022-12-04 14:05:09 GMT 54.027786 0.142430 31,350 300 468 -2688
2022-12-04 14:05:07 GMT 54.024857 0.151297 31,500 300 468 -2688
2022-12-04 14:05:04 GMT 54.021545 0.161160 31,675 300 468 -2688
2022-12-04 14:05:01 GMT 54.018906 0.169111 31,675 300 468 -2688
2022-12-04 14:04:59 GMT 54.015121 0.180386 31,825 300 468 -2816
2022-12-04 14:04:56 GMT 54.011814 0.190484 31,925 300 468 -2944
2022-12-04 14:04:54 GMT 54.011814 0.190484 32,075 300 468 -2944
2022-12-04 14:04:52 GMT 54.008835 0.199450 32,125 300 468 -2944
2022-12-04 14:04:51 GMT 54.007645 0.203012 32,175 300 468 -2944
2022-12-04 14:04:49 GMT 54.006599 0.206236 32,325 300 468 -2880
2022-12-04 14:04:47 GMT 54.004166 0.213606 32,325 300 468 -2880
2022-12-04 14:04:45 GMT 54.001144 0.222866 32,475 300 469 -2816
2022-12-04 14:04:43 GMT 54.000092 0.226083 32,525 300 469 -2816
2022-12-04 14:04:42 GMT 53.998947 0.229614 32,575 300 469 -2752
2022-12-04 14:04:40 GMT 53.996548 0.236933 32,700 300 469 -2752
2022-12-04 14:04:38 GMT 53.995056 0.241538 32,750 300 469 -2752
2022-12-04 14:04:37 GMT 53.994034 0.244688 32,825 300 469 -2816
2022-12-04 14:04:35 GMT 53.991238 0.253009 32,900 300 469 -2880
2022-12-04 14:04:34 GMT 53.988556 0.261318 33,025 299 468 -3008
2022-12-04 14:04:32 GMT 53.988556 0.261318 33,025 299 468 -3008
2022-12-04 14:04:31 GMT 53.986118 0.268842 33,150 299 468 -3008
2022-12-04 14:04:28 GMT 53.984116 0.274901 33,250 299 468 -3008
2022-12-04 14:04:27 GMT 53.982010 0.281407 33,350 299 467 -3008
2022-12-04 14:04:25 GMT 53.980957 0.284624 33,400 299 467 -3008
2022-12-04 14:04:24 GMT 53.978897 0.291059 33,500 299 466 -3264
2022-12-04 14:04:22 GMT 53.977798 0.294434 33,575 299 466 -3264
2022-12-04 14:04:20 GMT 53.975784 0.300751 33,625 299 466 -3456
2022-12-04 14:04:19 GMT 53.974808 0.303740 33,750 299 465 -3904
2022-12-04 14:04:18 GMT 53.973595 0.307456 33,825 299 465 -4096
2022-12-04 14:04:17 GMT 53.971596 0.313514 34,000 299 462 -4352
2022-12-04 14:04:15 GMT 53.970612 0.316485 34,075 299 462 -4352
2022-12-04 14:04:14 GMT 53.968643 0.322606 34,175 299 461 -4352
2022-12-04 14:04:12 GMT 53.967636 0.325666 34,250 299 460 -4288
2022-12-04 14:04:11 GMT 53.965450 0.332498 34,375 299 460 -4288
2022-12-04 14:04:09 GMT 53.964386 0.335711 34,475 299 458 -4224
2022-12-04 14:04:06 GMT 53.961353 0.345100 34,675 299 454 -3968
2022-12-04 14:04:05 GMT 53.960236 0.348574 34,750 299 454 -3968
2022-12-04 14:04:04 GMT 53.958115 0.355015 34,900 299 454 -3904
2022-12-04 14:04:02 GMT 53.957165 0.358025 34,975 299 452 -3776
2022-12-04 14:04:00 GMT 53.954910 0.364982 35,100 299 451 -3520
2022-12-04 14:03:57 GMT 53.952831 0.371677 35,175 299 451 -3520
2022-12-04 14:03:56 GMT 53.951843 0.374791 35,300 298 451 -3392
2022-12-04 14:03:55 GMT 53.950882 0.377694 35,350 298 451 -3392
2022-12-04 14:03:54 GMT 53.949463 0.382324 35,450 298 450 -3200
2022-12-04 14:03:52 GMT 53.947433 0.389045 35,550 297 450 -2944
2022-12-04 14:03:49 GMT 53.945244 0.396396 35,675 296 450 -2816
2022-12-04 14:03:48 GMT 53.944473 0.399118 35,675 296 450 -2752
2022-12-04 14:03:47 GMT 53.942734 0.405317 35,775 295 449 -2688
2022-12-04 14:03:45 GMT 53.941772 0.408770 35,825 295 449 -2560
2022-12-04 14:03:44 GMT 53.940914 0.412068 35,900 294 449 -2560
2022-12-04 14:03:42 GMT 53.939209 0.418501 36,050 293 450 -2496
2022-12-04 14:03:40 GMT 53.937149 0.426976 36,050 293 449 -2496
2022-12-04 14:03:37 GMT 53.934818 0.436787 36,325 287 449 -2496
2022-12-04 14:03:34 GMT 53.931698 0.451166 36,450 289 449 -2496
2022-12-04 14:03:32 GMT 53.931698 0.451166 36,450 289 449 -2496
2022-12-04 14:03:30 GMT 53.929825 0.460720 37,375 284 449 -2240
2022-12-04 14:03:27 GMT 53.927879 0.471200 36,625 286 449 -2496
2022-12-04 14:03:24 GMT 53.926895 0.477199 36,725 284 449 -2240
2022-12-04 14:03:21 GMT 53.924973 0.489205 36,775 285 449 -2240
2022-12-04 14:03:18 GMT 53.923462 0.500113 36,975 282 450 -2368
2022-12-04 14:03:15 GMT 53.922295 0.509087 36,975 282 450 -2368
2022-12-04 14:03:12 GMT 53.921085 0.519993 37,250 279 451 -2112
2022-12-04 14:03:10 GMT 53.920246 0.528313 37,225 279 450 -2112
2022-12-04 14:03:07 GMT 53.919315 0.538653 37,325 273 453 -1792
2022-12-04 14:03:04 GMT 53.918610 0.548218 37,425 273 453 -1792
2022-12-04 14:03:01 GMT 53.917694 0.563520 37,550 274 453 -1728
2022-12-04 14:02:58 GMT 53.917282 0.571995 37,625 273 453 -1728
2022-12-04 14:02:55 GMT 53.917007 0.580470 37,700 270 452 -1216
2022-12-04 14:02:53 GMT 53.916870 0.588161 37,825 272 453 -1920
2022-12-04 14:02:51 GMT 53.916756 0.595120 38,000 270 452 -1664
2022-12-04 14:02:48 GMT 53.916710 0.603844 37,925 268 451 -128
2022-12-04 14:02:46 GMT 53.916756 0.612811 38,000 268 451 -256
2022-12-04 14:02:43 GMT 53.917191 0.634460 38,000 267 451 0
2022-12-04 14:02:40 GMT 53.917191 0.634460 38,000 266 452 0
2022-12-04 14:02:37 GMT 53.917686 0.647547 38,000 264 452 0
2022-12-04 14:02:34 GMT 53.918060 0.654393 38,000 261 451 0
2022-12-04 14:02:31 GMT 53.918701 0.664751 38,000 262 451 0
2022-12-04 14:02:28 GMT 53.919846 0.678955 38,000 259 451 0
2022-12-04 14:02:25 GMT 53.920532 0.686567 38,000 258 451 0
2022-12-04 14:02:22 GMT 53.921585 0.696690 38,000 259 451 0
2022-12-04 14:02:20 GMT 53.923737 0.714273 38,000 258 451 0
2022-12-04 14:02:17 GMT 53.925201 0.724784 38,000 255 451 0
2022-12-04 14:02:14 GMT 53.925201 0.724784 38,000 254 451 0
2022-12-04 14:02:11 GMT 53.926529 0.733494 38,000 255 451 0
2022-12-04 14:02:08 GMT 53.929047 0.748483 38,000 253 451 0
2022-12-04 14:02:05 GMT 53.929790 0.752563 38,000 253 451 0
2022-12-04 14:02:02 GMT 53.932343 0.765747 38,000 251 451 0
2022-12-04 14:02:00 GMT 53.933716 0.772339 38,000 250 451 0
2022-12-04 14:01:57 GMT 53.936050 0.782854 38,000 248 451 0
2022-12-04 14:01:54 GMT 53.937889 0.790692 38,000 247 451 0
2022-12-04 14:01:51 GMT 53.939938 0.799094 38,000 246 451 0
2022-12-04 14:01:48 GMT 53.943058 0.810969 38,000 245 451 0
2022-12-04 14:01:45 GMT 53.946644 0.823651 38,000 243 452 0
2022-12-04 14:01:41 GMT 53.949856 0.834395 38,000 242 451 0
2022-12-04 14:01:38 GMT 53.953262 0.845006 38,000 241 451 0
2022-12-04 14:01:35 GMT 53.955719 0.852491 38,000 240 452 0
2022-12-04 14:01:31 GMT 53.959991 0.865016 38,000 240 452 0
2022-12-04 14:01:28 GMT 53.963634 0.875594 38,000 240 452 0
2022-12-04 14:01:24 GMT 53.971390 0.898289 38,000 240 452 0
2022-12-04 14:01:20 GMT 53.974731 0.908020 38,000 240 452 0
2022-12-04 14:01:17 GMT 53.974731 0.908020 38,000 240 452 64
2022-12-04 14:01:14 GMT 53.977692 0.916631 38,000 240 452 0
2022-12-04 14:01:11 GMT 53.980774 0.925677 38,000 240 452 0
2022-12-04 14:01:09 GMT 53.982834 0.931719 38,000 240 452 0
2022-12-04 14:01:06 GMT 53.986584 0.942562 38,000 240 452 0
2022-12-04 14:01:03 GMT 53.988678 0.948783 38,000 240 452 0
2022-12-04 14:01:01 GMT 53.991238 0.956134 38,000 240 452 0
2022-12-04 14:00:59 GMT 53.993286 0.962192 38,000 240 452 0
2022-12-04 14:00:56 GMT 53.996452 0.971482 38,000 240 452 0
2022-12-04 14:00:53 GMT 53.999245 0.979641 38,000 240 452 0
2022-12-04 14:00:50 GMT 54.002457 0.989012 38,000 240 452 0
2022-12-04 14:00:47 GMT 54.005764 0.998625 38,000 241 455 0
2022-12-04 14:00:44 GMT 54.008926 1.007996 38,000 240 452 0
2022-12-04 14:00:40 GMT 54.013119 1.020194 38,000 240 452 0
2022-12-04 14:00:37 GMT 54.015633 1.027626 38,000 240 452 0
2022-12-04 14:00:35 GMT 54.021450 1.044671 38,000 241 452 0
2022-12-04 14:00:32 GMT 54.024662 1.054122 38,000 241 452 0
2022-12-04 14:00:29 GMT 54.027924 1.063869 38,000 241 452 0
2022-12-04 14:00:26 GMT 54.027924 1.063869 38,000 241 452 0
2022-12-04 14:00:23 GMT 54.031601 1.074721 38,000 241 452 0
2022-12-04 14:00:20 GMT 54.033691 1.080976 38,000 241 452 0
2022-12-04 14:00:17 GMT 54.037418 1.092089 38,000 241 452 0
2022-12-04 14:00:13 GMT 54.040863 1.102430 38,000 241 453 0
2022-12-04 14:00:10 GMT 54.044815 1.114171 38,000 241 453 0
2022-12-04 14:00:07 GMT 54.047287 1.121494 38,000 241 453 -64
2022-12-04 14:00:04 GMT 54.054504 1.142982 38,000 241 453 0
2022-12-04 14:00:00 GMT 54.054504 1.142982 38,000 241 453 0
2022-12-04 13:59:57 GMT 54.057404 1.151603 38,000 241 453 0
2022-12-04 13:59:55 GMT 54.059326 1.157253 38,000 241 454 0
2022-12-04 13:59:53 GMT 54.061905 1.164874 38,000 241 454 0
2022-12-04 13:59:50 GMT 54.067772 1.182404 38,000 241 454 0
2022-12-04 13:59:47 GMT 54.067772 1.182404 38,000 241 454 0
2022-12-04 13:59:44 GMT 54.071075 1.192259 38,000 241 454 -64
2022-12-04 13:59:41 GMT 54.073685 1.200014 38,000 241 455 -64
2022-12-04 13:59:39 GMT 54.079548 1.217624 38,000 241 455 0
2022-12-04 13:59:36 GMT 54.079548 1.217624 38,000 241 455 0
2022-12-04 13:59:33 GMT 54.082123 1.225368 38,000 241 455 0
2022-12-04 13:59:29 GMT 54.086563 1.238708 38,000 241 455 0
2022-12-04 13:59:26 GMT 54.090775 1.251264 38,000 241 455 0
2022-12-04 13:59:23 GMT 54.092880 1.257621 38,000 241 455 0
2022-12-04 13:59:20 GMT 54.096680 1.269002 38,000 241 455 0
2022-12-04 13:59:17 GMT 54.099194 1.276434 38,000 241 455 0
2022-12-04 13:59:14 GMT 54.106876 1.299537 38,000 241 455 0
2022-12-04 13:59:10 GMT 54.106876 1.299537 38,000 241 455 0
2022-12-04 13:59:07 GMT 54.110039 1.308989 38,000 241 455 0
2022-12-04 13:59:05 GMT 54.111389 1.313109 38,000 241 455 64
2022-12-04 13:59:02 GMT 54.114304 1.321734 38,000 241 455 0
2022-12-04 13:58:59 GMT 54.118374 1.333869 38,000 241 455 -64
2022-12-04 13:58:56 GMT 54.121536 1.343236 38,000 241 455 64
2022-12-04 13:58:53 GMT 54.125076 1.353903 38,000 241 455 0
2022-12-04 13:58:50 GMT 54.130463 1.369917 38,000 241 455 64
2022-12-04 13:58:47 GMT 54.130463 1.369917 38,000 241 455 64
2022-12-04 13:58:45 GMT 54.132477 1.375957 38,000 241 455 64
2022-12-04 13:58:42 GMT 54.136017 1.386458 38,000 241 455 64
2022-12-04 13:58:39 GMT 54.138531 1.393971 38,000 241 455 0
2022-12-04 13:58:37 GMT 54.141232 1.402130 38,000 241 455 0
2022-12-04 13:58:34 GMT 54.144489 1.411743 38,000 241 455 0
2022-12-04 13:58:31 GMT 54.148132 1.422651 38,000 241 456 0
2022-12-04 13:58:28 GMT 54.149750 1.427496 38,000 241 456 0
2022-12-04 13:58:26 GMT 54.151798 1.433716 38,000 241 456 0
2022-12-04 13:58:23 GMT 54.156235 1.446978 38,000 241 456 0
2022-12-04 13:58:19 GMT 54.159943 1.458031 38,000 241 455 0
2022-12-04 13:58:16 GMT 54.162365 1.465302 38,000 241 455 0
2022-12-04 13:58:14 GMT 54.169113 1.485416 38,000 241 456 0
2022-12-04 13:58:10 GMT 54.169113 1.485416 38,000 241 455 0
2022-12-04 13:58:07 GMT 54.176331 1.507089 38,000 241 455 0
2022-12-04 13:58:04 GMT 54.178391 1.513288 38,000 241 456 0
2022-12-04 13:58:01 GMT 54.178391 1.513288 38,000 241 456 0
2022-12-04 13:57:58 GMT 54.180908 1.520900 38,000 241 456 0
2022-12-04 13:57:56 GMT 54.183563 1.528826 38,000 241 456 0
2022-12-04 13:57:52 GMT 54.188828 1.544678 38,000 241 455 0
2022-12-04 13:57:49 GMT 54.191208 1.551897 38,000 241 456 0
2022-12-04 13:57:46 GMT 54.193817 1.559588 38,000 241 455 0
2022-12-04 13:57:43 GMT 54.196793 1.568612 38,000 241 455 0
2022-12-04 13:57:40 GMT 54.199860 1.577872 38,000 241 455 0
2022-12-04 13:57:38 GMT 54.202469 1.585798 38,000 241 455 0
2022-12-04 13:57:35 GMT 54.204773 1.592775 38,000 241 455 0
2022-12-04 13:57:32 GMT 54.208546 1.604165 38,000 241 455 0
2022-12-04 13:57:29 GMT 54.211246 1.612405 38,000 241 455 64
2022-12-04 13:57:26 GMT 54.215015 1.623795 38,000 241 455 -64
2022-12-04 13:57:23 GMT 54.217575 1.631551 38,000 241 455 -64
2022-12-04 13:57:20 GMT 54.220734 1.641044 38,000 241 455 -64
2022-12-04 13:57:17 GMT 54.222744 1.647141 38,000 241 455 -64
2022-12-04 13:57:15 GMT 54.229027 1.666287 38,000 241 455 0
2022-12-04 13:57:12 GMT 54.229027 1.666287 38,000 241 456 0
2022-12-04 13:57:08 GMT 54.232891 1.677919 38,000 241 455 0
2022-12-04 13:57:05 GMT 54.236298 1.688285 38,000 241 455 0
2022-12-04 13:57:02 GMT 54.239456 1.697780 38,000 241 456 0
2022-12-04 13:56:58 GMT 54.243412 1.709909 38,000 241 455 0
2022-12-04 13:56:55 GMT 54.246532 1.719360 38,000 241 456 0
2022-12-04 13:56:51 GMT 54.251698 1.735032 38,000 241 456 0
2022-12-04 13:56:47 GMT 54.255157 1.745728 38,000 241 455 0
2022-12-04 13:56:43 GMT 54.258591 1.756086 38,000 241 455 0
2022-12-04 13:56:40 GMT 54.264732 1.774777 38,000 241 455 0
2022-12-04 13:56:37 GMT 54.264732 1.774777 38,000 241 455 0
2022-12-04 13:56:35 GMT 54.267014 1.781669 38,000 241 455 0
2022-12-04 13:56:32 GMT 54.269760 1.790125 38,000 241 455 0
2022-12-04 13:56:29 GMT 54.274181 1.803616 38,000 241 455 0
2022-12-04 13:56:26 GMT 54.279144 1.818722 38,000 242 453 64
2022-12-04 13:56:21 GMT 54.281250 1.825104 38,000 241 455 0
2022-12-04 13:56:18 GMT 54.284729 1.835686 38,000 241 455 0
2022-12-04 13:56:14 GMT 54.288254 1.846511 38,000 241 454 0
2022-12-04 13:56:11 GMT 54.291313 1.855857 38,000 241 454 0
2022-12-04 13:56:08 GMT 54.298672 1.878329 38,000 241 454 0
2022-12-04 13:56:05 GMT 54.300625 1.884322 38,000 241 454 0
2022-12-04 13:56:02 GMT 54.300625 1.884322 38,000 242 454 0
2022-12-04 13:55:59 GMT 54.304596 1.896596 38,000 241 454 64
2022-12-04 13:55:56 GMT 54.307190 1.904547 38,000 241 454 64
2022-12-04 13:55:53 GMT 54.310318 1.914206 38,000 241 454 0
2022-12-04 13:55:50 GMT 54.313473 1.923856 38,000 241 454 0
2022-12-04 13:55:47 GMT 54.317184 1.935209 38,000 241 454 0
2022-12-04 13:55:44 GMT 54.318649 1.939733 38,000 241 454 0
2022-12-04 13:55:42 GMT 54.321293 1.947909 38,000 241 454 0
2022-12-04 13:55:39 GMT 54.327301 1.966310 38,000 241 454 0
2022-12-04 13:55:36 GMT 54.327301 1.966310 38,000 241 454 0
2022-12-04 13:55:33 GMT 54.330326 1.975708 38,000 242 453 0
2022-12-04 13:55:31 GMT 54.331833 1.980366 38,000 242 453 0
2022-12-04 13:55:28 GMT 54.335026 1.990273 38,000 241 454 0
2022-12-04 13:55:25 GMT 54.339157 2.002905 38,000 241 454 0
2022-12-04 13:55:20 GMT 54.343506 2.016234 38,000 242 453 -64
2022-12-04 13:55:17 GMT 54.349228 2.033969 38,000 242 453 0
2022-12-04 13:55:14 GMT 54.349228 2.033969 38,000 242 453 0
2022-12-04 13:55:10 GMT 54.353668 2.047658 38,000 242 453 64
2022-12-04 13:55:07 GMT 54.357101 2.058240 38,000 242 454 -64
2022-12-04 13:55:04 GMT 54.359608 2.066096 38,000 242 454 0
2022-12-04 13:55:01 GMT 54.362679 2.075500 38,000 242 454 -64
2022-12-04 13:54:58 GMT 54.365379 2.083990 38,000 242 454 0
2022-12-04 13:54:55 GMT 54.370361 2.099387 38,000 242 453 0
2022-12-04 13:54:52 GMT 54.372620 2.106467 38,000 242 453 0
2022-12-04 13:54:49 GMT 54.374634 2.112687 38,000 242 453 0
2022-12-04 13:54:46 GMT 54.380604 2.131348 38,000 242 453 0
2022-12-04 13:54:43 GMT 54.380604 2.131348 38,000 242 453 64
2022-12-04 13:54:39 GMT 54.384750 2.144273 38,000 242 453 0
2022-12-04 13:54:36 GMT 54.388687 2.156390 38,000 242 453 0
2022-12-04 13:54:33 GMT 54.390888 2.163391 38,000 242 453 0
2022-12-04 13:54:30 GMT 54.394054 2.173129 38,000 242 453 0
2022-12-04 13:54:27 GMT 54.397430 2.183533 38,000 242 453 0
2022-12-04 13:54:24 GMT 54.400452 2.192903 38,000 242 453 0
2022-12-04 13:54:20 GMT 54.405487 2.208656 38,000 242 453 0
2022-12-04 13:54:17 GMT 54.407509 2.214994 38,000 242 453 0
2022-12-04 13:54:14 GMT 54.411606 2.227644 38,000 242 454 64
2022-12-04 13:54:11 GMT 54.416260 2.242210 38,000 242 453 0
2022-12-04 13:54:08 GMT 54.416260 2.242210 38,000 242 453 0
2022-12-04 13:54:04 GMT 54.423569 2.264961 38,000 242 454 0
2022-12-04 13:54:01 GMT 54.423569 2.264961 38,000 242 454 -64
2022-12-04 13:53:58 GMT 54.426781 2.275002 38,000 242 454 -64
2022-12-04 13:53:55 GMT 54.429520 2.283541 38,000 242 453 -64
2022-12-04 13:53:53 GMT 54.431625 2.290084 38,000 242 453 0
2022-12-04 13:53:49 GMT 54.435196 2.301232 38,000 242 453 0
2022-12-04 13:53:46 GMT 54.439728 2.315449 38,000 242 454 0
2022-12-04 13:53:43 GMT 54.441193 2.320054 38,000 242 453 0
2022-12-04 13:53:40 GMT 54.445953 2.334756 38,000 242 453 0
2022-12-04 13:53:37 GMT 54.451733 2.352822 38,000 242 453 0
2022-12-04 13:53:33 GMT 54.451733 2.352822 38,000 242 453 0
2022-12-04 13:53:29 GMT 54.456341 2.367221 38,000 242 453 0
2022-12-04 13:53:26 GMT 54.459274 2.376210 38,000 242 453 0
2022-12-04 13:53:22 GMT 54.462627 2.386697 38,000 242 453 -64
2022-12-04 13:53:19 GMT 54.469162 2.406975 38,000 242 453 0
2022-12-04 13:53:16 GMT 54.469162 2.406975 38,000 242 453 -64
2022-12-04 13:53:13 GMT 54.472275 2.416669 38,000 242 453 0
2022-12-04 13:53:08 GMT 54.480286 2.441550 38,000 242 453 0
2022-12-04 13:53:04 GMT 54.480286 2.441550 38,000 242 453 0
2022-12-04 13:53:02 GMT 54.483482 2.451449 38,000 242 453 0
2022-12-04 13:52:59 GMT 54.486053 2.459483 38,000 242 454 0
2022-12-04 13:52:56 GMT 54.490002 2.471757 38,000 242 453 0
2022-12-04 13:52:53 GMT 54.492233 2.478665 38,000 242 453 0
2022-12-04 13:52:50 GMT 54.495346 2.488323 38,000 242 453 0
2022-12-04 13:52:47 GMT 54.498367 2.497774 38,000 242 453 0
2022-12-04 13:52:43 GMT 54.505600 2.520312 38,000 242 454 0
2022-12-04 13:52:40 GMT 54.505600 2.520312 38,000 242 454 0
2022-12-04 13:52:37 GMT 54.508621 2.529685 38,000 242 454 0
2022-12-04 13:52:33 GMT 54.512623 2.542253 38,000 242 453 0
2022-12-04 13:52:30 GMT 54.515671 2.551817 38,000 242 453 0
2022-12-04 13:52:27 GMT 54.518814 2.561729 38,000 242 453 0
2022-12-04 13:52:24 GMT 54.521889 2.571300 38,000 242 453 0
2022-12-04 13:52:21 GMT 54.524780 2.580495 38,000 242 454 0
2022-12-04 13:52:18 GMT 54.529987 2.596852 38,000 242 454 0
2022-12-04 13:52:11 GMT 54.533890 2.609172 38,000 242 454 0
2022-12-04 13:52:08 GMT 54.541260 2.632437 38,000 242 454 0
2022-12-04 13:52:05 GMT 54.541260 2.632437 38,000 242 454 0
2022-12-04 13:52:02 GMT 54.544327 2.642129 38,000 242 454 0
2022-12-04 13:51:59 GMT 54.546608 2.649453 38,000 242 455 0
2022-12-04 13:51:56 GMT 54.549122 2.657277 38,000 242 453 0
2022-12-04 13:51:52 GMT 54.553574 2.671536 38,000 242 454 0
2022-12-04 13:51:49 GMT 54.557034 2.682495 38,000 242 454 64
2022-12-04 13:51:44 GMT 54.561459 2.696644 38,000 242 454 0
2022-12-04 13:51:41 GMT 54.563919 2.704575 38,000 242 454 64
2022-12-04 13:51:38 GMT 54.566952 2.714289 38,000 242 455 0
2022-12-04 13:51:34 GMT 54.571697 2.729520 38,000 242 455 0
2022-12-04 13:51:31 GMT 54.574127 2.737292 38,000 242 455 0
2022-12-04 13:51:28 GMT 54.577057 2.746663 38,000 242 454 0
2022-12-04 13:51:25 GMT 54.580673 2.758295 38,000 242 455 0
2022-12-04 13:51:22 GMT 54.583511 2.767343 38,000 242 454 0
2022-12-04 13:51:19 GMT 54.586502 2.777044 38,000 242 454 0
2022-12-04 13:51:16 GMT 54.588913 2.784711 38,000 242 455 -64
2022-12-04 13:51:12 GMT 54.593582 2.799494 38,000 242 455 0
2022-12-04 13:51:09 GMT 54.597069 2.810669 38,000 242 455 0
2022-12-04 13:51:06 GMT 54.599258 2.817577 38,000 242 455 0
2022-12-04 13:51:02 GMT 54.603882 2.832292 38,000 242 454 0
2022-12-04 13:50:58 GMT 54.612534 2.859919 38,000 242 454 0
2022-12-04 13:50:51 GMT 54.614014 2.864519 38,000 242 454 64
2022-12-04 13:50:47 GMT 54.617615 2.876156 38,000 242 454 64
2022-12-04 13:50:44 GMT 54.620766 2.886158 38,000 242 454 64
2022-12-04 13:50:41 GMT 54.625488 2.901279 38,000 242 454 0
2022-12-04 13:50:36 GMT 54.629421 2.913707 38,000 242 455 0
2022-12-04 13:50:32 GMT 54.632683 2.924111 38,000 242 454 0
2022-12-04 13:50:28 GMT 54.637390 2.939085 38,000 242 454 0
2022-12-04 13:50:25 GMT 54.639896 2.947166 38,000 242 454 0
2022-12-04 13:50:22 GMT 54.643436 2.958485 38,000 242 455 0
2022-12-04 13:50:18 GMT 54.647018 2.969887 38,000 242 455 0
2022-12-04 13:50:15 GMT 54.654469 2.993691 38,000 242 455 0
2022-12-04 13:50:11 GMT 54.654469 2.993691 38,000 242 455 0
2022-12-04 13:50:06 GMT 54.660053 3.011502 38,000 242 455 0
2022-12-04 13:50:02 GMT 54.663082 3.021157 38,000 242 455 0
2022-12-04 13:49:59 GMT 54.667362 3.034807 38,000 242 455 0
2022-12-04 13:49:55 GMT 54.670017 3.043379 38,000 242 455 -64
2022-12-04 13:49:51 GMT 54.674881 3.058965 38,000 242 455 0
2022-12-04 13:49:44 GMT 54.680923 3.078272 38,000 242 455 0
2022-12-04 13:49:40 GMT 54.685146 3.091902 38,000 242 455 64
2022-12-04 13:49:37 GMT 54.687660 3.099892 38,000 242 455 0
2022-12-04 13:49:34 GMT 54.690639 3.109547 38,000 242 455 0
2022-12-04 13:49:31 GMT 54.694225 3.120949 38,000 242 456 0
2022-12-04 13:49:27 GMT 54.697540 3.131588 38,000 242 455 0
2022-12-04 13:49:24 GMT 54.700649 3.141507 38,000 242 455 0
2022-12-04 13:49:19 GMT 54.705677 3.157737 38,000 242 455 0
2022-12-04 13:49:15 GMT 54.710331 3.172552 38,000 242 456 0
2022-12-04 13:49:11 GMT 54.713882 3.184016 38,000 242 457 0
2022-12-04 13:49:07 GMT 54.718014 3.197271 38,000 242 457 -64
2022-12-04 13:49:04 GMT 54.720474 3.205261 38,000 242 458 0
2022-12-04 13:48:59 GMT 54.725372 3.221175 38,000 242 458 0
2022-12-04 13:48:54 GMT 54.731232 3.240051 38,000 242 459 0
2022-12-04 13:48:50 GMT 54.735794 3.254783 38,000 242 459 0
2022-12-04 13:48:47 GMT 54.738586 3.263938 38,000 242 459 0
2022-12-04 13:48:44 GMT 54.740543 3.270264 38,000 242 459 0
2022-12-04 13:48:41 GMT 54.748646 3.296564 38,000 242 459 0
2022-12-04 13:48:36 GMT 54.748646 3.296564 38,000 243 460 0
2022-12-04 13:48:33 GMT 54.752014 3.307612 38,000 243 460 0
2022-12-04 13:48:30 GMT 54.753902 3.313710 38,000 243 460 0
2022-12-04 13:48:28 GMT 54.756821 3.323283 38,000 243 460 0
2022-12-04 13:48:23 GMT 54.762096 3.340426 38,000 243 460 0
2022-12-04 13:48:20 GMT 54.764191 3.347276 38,000 243 460 0
2022-12-04 13:48:16 GMT 54.768986 3.362898 38,000 243 462 0
2022-12-04 13:48:12 GMT 54.772659 3.374903 38,000 243 462 0
2022-12-04 13:48:09 GMT 54.779892 3.398411 38,000 243 462 0
2022-12-04 13:48:05 GMT 54.779892 3.398411 38,000 243 461 64
2022-12-04 13:48:01 GMT 54.783920 3.411740 38,000 243 461 0
2022-12-04 13:47:58 GMT 54.790237 3.432420 38,000 242 461 0
2022-12-04 13:47:54 GMT 54.790237 3.432420 38,000 243 462 0
2022-12-04 13:47:51 GMT 54.793892 3.444464 38,000 243 462 0
2022-12-04 13:47:48 GMT 54.796417 3.452858 38,000 242 461 0
2022-12-04 13:47:45 GMT 54.799942 3.464409 38,000 243 462 0
2022-12-04 13:47:40 GMT 54.804840 3.480485 38,000 243 462 0
2022-12-04 13:47:38 GMT 54.806580 3.486220 38,000 243 461 0
2022-12-04 13:47:34 GMT 54.810516 3.499226 38,000 243 461 0
2022-12-04 13:47:30 GMT 54.814224 3.511424 38,000 243 461 0
2022-12-04 13:47:27 GMT 54.816833 3.520149 38,000 243 461 0
2022-12-04 13:47:23 GMT 54.822334 3.538263 38,000 243 460 64
2022-12-04 13:47:20 GMT 54.824295 3.544868 38,000 243 460 0
2022-12-04 13:47:18 GMT 54.826767 3.552946 38,000 242 461 0
2022-12-04 13:47:15 GMT 54.829239 3.561186 38,000 243 461 64
2022-12-04 13:47:12 GMT 54.832253 3.570973 38,000 243 461 64
2022-12-04 13:47:09 GMT 54.835369 3.581210 38,000 243 460 0
2022-12-04 13:47:05 GMT 54.839264 3.593903 38,000 242 461 0
2022-12-04 13:46:58 GMT 54.846085 3.616279 38,000 242 461 0
2022-12-04 13:46:54 GMT 54.849754 3.628152 38,000 242 461 0
2022-12-04 13:46:50 GMT 54.854736 3.644298 38,000 242 461 0
2022-12-04 13:46:47 GMT 54.856785 3.650957 38,000 242 461 -64
2022-12-04 13:46:43 GMT 54.860882 3.664357 38,000 243 460 0
2022-12-04 13:46:39 GMT 54.864838 3.677257 38,000 243 460 0
2022-12-04 13:46:37 GMT 54.867630 3.686412 38,000 243 460 0
2022-12-04 13:46:34 GMT 54.869774 3.693321 38,000 243 460 -64
2022-12-04 13:46:29 GMT 54.874615 3.709301 38,000 243 460 64
2022-12-04 13:46:27 GMT 54.876850 3.716625 38,000 243 460 0
2022-12-04 13:46:24 GMT 54.882797 3.736402 38,000 243 459 -64
2022-12-04 13:46:21 GMT 54.882797 3.736402 38,000 243 460 -64
2022-12-04 13:46:17 GMT 54.886826 3.749569 38,000 243 460 0
2022-12-04 13:46:15 GMT 54.889069 3.757001 38,000 243 459 0
2022-12-04 13:46:12 GMT 54.891632 3.765402 38,000 243 459 -64
2022-12-04 13:46:09 GMT 54.895248 3.777439 38,000 243 460 0
2022-12-04 13:46:06 GMT 54.897263 3.784144 38,000 243 459 0
2022-12-04 13:46:02 GMT 54.901199 3.797069 38,000 243 460 0
2022-12-04 13:45:56 GMT 54.906967 3.816214 38,000 243 460 0
2022-12-04 13:45:52 GMT 54.911819 3.832371 38,000 243 459 0
2022-12-04 13:45:49 GMT 54.914978 3.842872 38,000 243 459 0
2022-12-04 13:45:46 GMT 54.917542 3.851354 38,000 243 459 0
2022-12-04 13:45:43 GMT 54.920002 3.859614 38,000 243 459 -64
2022-12-04 13:45:40 GMT 54.922607 3.868269 38,000 243 458 0
2022-12-04 13:45:37 GMT 54.926987 3.882751 38,000 243 458 0
2022-12-04 13:45:34 GMT 54.929592 3.891407 38,000 243 459 0
2022-12-04 13:45:31 GMT 54.932465 3.900954 38,000 243 459 0
2022-12-04 13:45:28 GMT 54.934807 3.908969 38,000 243 459 0
2022-12-04 13:45:21 GMT 54.942116 3.933355 38,000 243 459 0
2022-12-04 13:45:15 GMT 54.947422 3.951250 38,000 243 458 0
2022-12-04 13:45:12 GMT 54.951008 3.963318 38,000 243 459 0
2022-12-04 13:45:08 GMT 54.954357 3.974637 38,000 243 458 0
2022-12-04 13:45:04 GMT 54.958363 3.987871 38,000 243 458 0
2022-12-04 13:45:01 GMT 54.961395 3.998054 38,000 243 458 0
2022-12-04 13:44:56 GMT 54.965950 4.013339 38,000 243 458 0
2022-12-04 13:44:52 GMT 54.969536 4.025407 38,000 243 458 0
2022-12-04 13:44:48 GMT 54.974487 4.041999 38,000 243 458 0
2022-12-04 13:44:45 GMT 54.976822 4.049916 38,000 243 458 0
2022-12-04 13:44:41 GMT 54.981125 4.064376 38,000 243 458 0
2022-12-04 13:44:34 GMT 54.987076 4.084410 38,000 243 458 0
2022-12-04 13:44:30 GMT 54.991180 4.098150 38,000 243 458 -64
2022-12-04 13:44:26 GMT 54.994488 4.109136 38,000 243 458 0
2022-12-04 13:44:24 GMT 54.997009 4.117530 38,000 243 458 0
2022-12-04 13:44:21 GMT 54.999931 4.127197 38,000 243 458 0
2022-12-04 13:44:17 GMT 55.006775 4.150085 38,000 243 458 0
2022-12-04 13:44:14 GMT 55.006775 4.150085 38,000 243 458 0
2022-12-04 13:44:11 GMT 55.009781 4.160183 38,000 243 458 -64
2022-12-04 13:44:08 GMT 55.016693 4.183294 38,000 243 458 0
2022-12-04 13:44:05 GMT 55.016693 4.183294 38,000 243 458 0
2022-12-04 13:44:01 GMT 55.019531 4.192819 38,000 243 458 -64
2022-12-04 13:43:55 GMT 55.025482 4.212934 38,000 243 458 0
2022-12-04 13:43:53 GMT 55.027359 4.219396 38,000 243 458 0
2022-12-04 13:43:50 GMT 55.030239 4.229070 38,000 243 457 64
2022-12-04 13:43:46 GMT 55.034336 4.242970 38,000 243 457 64
2022-12-04 13:43:44 GMT 55.036194 4.249366 38,000 243 457 0
2022-12-04 13:43:39 GMT 55.041969 4.269104 38,000 243 458 0
2022-12-04 13:43:33 GMT 55.046066 4.283170 38,000 243 457 0
2022-12-04 13:43:29 GMT 55.050247 4.297351 38,000 243 457 0
2022-12-04 13:43:26 GMT 55.054073 4.310386 38,000 243 457 0
2022-12-04 13:43:24 GMT 55.055603 4.315446 38,000 243 457 0
2022-12-04 13:43:19 GMT 55.063988 4.343844 38,000 243 457 0
2022-12-04 13:43:15 GMT 55.063988 4.343844 38,000 243 457 0
2022-12-04 13:43:13 GMT 55.066269 4.351475 38,000 243 457 64
2022-12-04 13:43:10 GMT 55.068645 4.359492 38,000 243 457 0
2022-12-04 13:43:03 GMT 55.075653 4.383141 38,000 243 457 0
2022-12-04 13:42:59 GMT 55.079727 4.396955 38,000 243 457 0
2022-12-04 13:42:56 GMT 55.082382 4.406002 38,000 243 457 0
2022-12-04 13:42:51 GMT 55.087311 4.422829 38,000 243 457 0
2022-12-04 13:42:48 GMT 55.090210 4.432660 38,000 244 457 64
2022-12-04 13:42:45 GMT 55.093082 4.442472 38,000 244 457 64
2022-12-04 13:42:43 GMT 55.095829 4.451877 38,000 244 457 0
2022-12-04 13:42:35 GMT 55.102432 4.474667 38,000 244 457 0
2022-12-04 13:42:31 GMT 55.106350 4.488165 38,000 243 457 -64
2022-12-04 13:42:26 GMT 55.111267 4.504879 38,000 243 457 -64
2022-12-04 13:42:24 GMT 55.113522 4.512551 38,000 243 457 -64
2022-12-04 13:42:20 GMT 55.117012 4.524619 38,000 244 456 0
2022-12-04 13:42:17 GMT 55.122692 4.544012 38,000 244 456 0
2022-12-04 13:42:14 GMT 55.122692 4.544012 38,000 244 456 0
2022-12-04 13:42:11 GMT 55.126144 4.555933 38,000 244 456 0
2022-12-04 13:42:07 GMT 55.131863 4.575722 38,000 244 456 0
2022-12-04 13:42:01 GMT 55.135208 4.587115 38,000 244 456 0
2022-12-04 13:41:57 GMT 55.139420 4.601575 38,000 244 456 0
2022-12-04 13:41:54 GMT 55.141403 4.608432 38,000 244 456 0
2022-12-04 13:41:49 GMT 55.146618 4.626493 38,000 244 456 0
2022-12-04 13:41:46 GMT 55.149490 4.636230 38,000 244 456 0
2022-12-04 13:41:42 GMT 55.153320 4.649381 38,000 244 456 0
2022-12-04 13:41:39 GMT 55.158817 4.668274 38,000 244 456 0
2022-12-04 13:41:33 GMT 55.162354 4.680337 38,000 243 455 0
2022-12-04 13:41:24 GMT 55.174923 4.723372 38,000 243 456 0
2022-12-04 13:41:20 GMT 55.174923 4.723372 38,000 243 456 0
2022-12-04 13:41:17 GMT 55.177811 4.733193 38,000 243 456 0
2022-12-04 13:41:12 GMT 55.181900 4.747225 38,000 243 456 0
2022-12-04 13:41:09 GMT 55.184513 4.756081 38,000 243 456 -64
2022-12-04 13:41:06 GMT 55.187260 4.765570 38,000 243 456 0
2022-12-04 13:41:02 GMT 55.191559 4.780264 38,000 243 456 -64
2022-12-04 13:40:56 GMT 55.197174 4.799527 38,000 243 455 0
2022-12-04 13:40:53 GMT 55.199409 4.807101 38,000 243 455 0
2022-12-04 13:40:50 GMT 55.202957 4.819444 38,000 244 455 0
2022-12-04 13:40:45 GMT 55.207626 4.835358 38,000 244 455 0
2022-12-04 13:40:42 GMT 55.210720 4.846053 38,000 244 455 64
2022-12-04 13:40:35 GMT 55.217285 4.868941 38,000 244 455 0
2022-12-04 13:40:31 GMT 55.220821 4.881259 38,000 244 455 0
2022-12-04 13:40:27 GMT 55.224426 4.893844 38,000 244 456 0
2022-12-04 13:40:23 GMT 55.229481 4.911555 38,000 244 454 0
2022-12-04 13:40:20 GMT 55.232208 4.921148 38,000 244 455 0
2022-12-04 13:40:16 GMT 55.234497 4.929307 38,000 244 455 0
2022-12-04 13:40:13 GMT 55.238838 4.944513 38,000 244 455 0
2022-12-04 13:40:09 GMT 55.241215 4.952920 38,000 244 456 0
2022-12-04 13:40:06 GMT 55.244518 4.964489 38,000 244 455 0
2022-12-04 13:40:03 GMT 55.247173 4.973810 38,000 244 454 0
2022-12-04 13:39:59 GMT 55.257973 5.011680 37,000 244 454 0
2022-12-04 13:39:51 GMT 55.257973 5.011680 38,000 244 454 0
2022-12-04 13:39:48 GMT 55.261185 5.023082 38,000 244 454 0
2022-12-04 13:39:40 GMT 55.268166 5.047635 38,000 244 454 0
2022-12-04 13:39:37 GMT 55.271759 5.060173 38,000 244 454 64
2022-12-04 13:39:33 GMT 55.274822 5.071106 38,000 244 454 0
2022-12-04 13:39:28 GMT 55.279572 5.087669 38,000 244 453 -64
2022-12-04 13:39:22 GMT 55.285809 5.109641 38,000 244 453 0
2022-12-04 13:39:18 GMT 55.288696 5.119795 38,000 244 453 0
2022-12-04 13:39:11 GMT 55.295261 5.142684 38,000 244 453 64
2022-12-04 13:39:08 GMT 55.298721 5.154850 38,000 244 453 0
2022-12-04 13:39:04 GMT 55.306229 5.181265 38,000 244 453 0
2022-12-04 13:39:01 GMT 55.306229 5.181265 38,000 244 453 0
2022-12-04 13:38:58 GMT 55.308434 5.188959 38,000 244 453 0
2022-12-04 13:38:51 GMT 55.317123 5.219394 38,000 244 453 0
2022-12-04 13:38:48 GMT 55.317123 5.219394 38,000 244 453 0
2022-12-04 13:38:41 GMT 55.324215 5.244390 38,000 244 453 0
2022-12-04 13:38:38 GMT 55.326599 5.252838 38,000 244 453 0
2022-12-04 13:38:31 GMT 55.333340 5.276683 38,000 244 453 0
2022-12-04 13:38:28 GMT 55.335754 5.285151 38,000 244 453 0
2022-12-04 13:38:22 GMT 55.341625 5.306064 38,000 244 453 -64
2022-12-04 13:38:18 GMT 55.352425 5.344349 38,000 244 453 0
2022-12-04 13:38:10 GMT 55.352425 5.344349 38,000 244 454 0
2022-12-04 13:38:06 GMT 55.357224 5.361490 38,000 244 454 0
2022-12-04 13:38:00 GMT 55.361618 5.377242 38,000 244 454 0
2022-12-04 13:37:58 GMT 55.363461 5.383634 37,000 244 455 0
2022-12-04 13:37:55 GMT 55.366516 5.394529 37,000 244 455 0
2022-12-04 13:37:51 GMT 55.371140 5.411009 38,000 244 455 -64
2022-12-04 13:37:48 GMT 55.373096 5.417924 38,000 244 455 -64
2022-12-04 13:37:45 GMT 55.375515 5.426497 38,000 244 455 -64
2022-12-04 13:37:41 GMT 55.382221 5.450467 38,000 244 454 64
2022-12-04 13:37:38 GMT 55.382221 5.450467 38,000 244 454 64
2022-12-04 13:37:34 GMT 55.385571 5.462369 38,000 244 455 -64
2022-12-04 13:37:28 GMT 55.391556 5.483632 38,000 244 455 0
2022-12-04 13:37:25 GMT 55.394230 5.493081 38,000 244 456 0
2022-12-04 13:37:20 GMT 55.401958 5.520547 38,000 244 456 0
2022-12-04 13:37:17 GMT 55.409592 5.547853 38,000 244 456 0
2022-12-04 13:37:09 GMT 55.410919 5.552539 38,000 244 455 0
2022-12-04 13:37:07 GMT 55.410919 5.552539 38,000 244 455 0
2022-12-04 13:36:59 GMT 55.419937 5.584771 38,000 244 456 0
2022-12-04 13:36:54 GMT 55.423187 5.596403 38,000 253 459 0
2022-12-04 13:36:48 GMT 55.431843 5.627164 38,000 244 456 -64
2022-12-04 13:36:38 GMT 55.438477 5.650931 38,000 244 456 64
2022-12-04 13:36:35 GMT 55.440598 5.658458 38,000 244 456 64
2022-12-04 13:36:30 GMT 55.445938 5.677684 38,000 244 456 0
2022-12-04 13:36:27 GMT 55.451210 5.696497 38,000 244 457 0
2022-12-04 13:36:24 GMT 55.451210 5.696497 38,000 244 457 0
2022-12-04 13:36:18 GMT 55.456612 5.715809 38,000 244 457 -64
2022-12-04 13:36:15 GMT 55.459404 5.725765 38,000 244 457 0
2022-12-04 13:36:09 GMT 55.465393 5.747265 38,000 244 457 0
2022-12-04 13:36:06 GMT 55.468872 5.759666 38,000 244 457 0
2022-12-04 13:35:59 GMT 55.474457 5.779641 38,000 244 457 0
2022-12-04 13:35:56 GMT 55.477158 5.789379 38,000 244 458 0
2022-12-04 13:35:53 GMT 55.480042 5.799616 38,000 244 458 0
2022-12-04 13:35:50 GMT 55.483063 5.810519 38,000 244 457 0
2022-12-04 13:35:47 GMT 55.485893 5.820608 38,000 244 458 0
2022-12-04 13:35:44 GMT 55.488556 5.830161 38,000 244 458 0
2022-12-04 13:35:39 GMT 55.493317 5.847140 38,000 244 458 -64
2022-12-04 13:35:35 GMT 55.496971 5.860262 38,000 253 460 -64
2022-12-04 13:35:28 GMT 55.506516 5.894423 38,000 244 458 -64
2022-12-04 13:35:25 GMT 55.511963 5.915022 38,000 249 459 64
2022-12-04 13:35:18 GMT 55.511963 5.915022 38,000 247 458 64
2022-12-04 13:35:15 GMT 55.515408 5.929098 38,000 249 459 64
2022-12-04 13:35:11 GMT 55.518494 5.942771 38,000 251 459 64
2022-12-04 13:35:05 GMT 55.521969 5.959654 38,000 252 460 0
2022-12-04 13:35:01 GMT 55.524811 5.974932 38,000 253 461 64
2022-12-04 13:34:57 GMT 55.528069 5.992956 38,000 253 460 -64
2022-12-04 13:34:53 GMT 55.529800 6.002613 38,000 253 460 0
2022-12-04 13:34:49 GMT 55.532955 6.020422 38,000 253 460 0
2022-12-04 13:34:46 GMT 55.537331 6.044798 37,000 253 459 0
2022-12-04 13:34:42 GMT 55.537331 6.044798 37,000 253 459 0
2022-12-04 13:34:38 GMT 55.540588 6.063166 38,000 253 461 0
2022-12-04 13:34:34 GMT 55.542500 6.073980 38,000 253 460 0
2022-12-04 13:34:27 GMT 55.546738 6.098078 38,000 253 460 0
2022-12-04 13:34:24 GMT 55.548969 6.110458 38,000 253 460 -64
2022-12-04 13:34:21 GMT 55.550228 6.117840 38,000 253 460 0
2022-12-04 13:34:18 GMT 55.552742 6.132002 38,000 253 460 0
2022-12-04 13:34:15 GMT 55.554382 6.141524 38,000 253 460 0
2022-12-04 13:34:11 GMT 55.556789 6.155005 38,000 253 460 0
2022-12-04 13:34:07 GMT 55.559052 6.167908 38,000 253 460 0
2022-12-04 13:34:05 GMT 55.560562 6.176564 38,000 253 460 0
2022-12-04 13:34:02 GMT 55.562164 6.185636 38,000 253 460 0
2022-12-04 13:33:59 GMT 55.564362 6.197954 38,000 253 461 0
2022-12-04 13:33:56 GMT 55.566330 6.209023 38,000 253 461 0
2022-12-04 13:33:53 GMT 55.568253 6.220010 38,000 253 460 0
2022-12-04 13:33:49 GMT 55.570679 6.233410 38,000 253 461 0
2022-12-04 13:33:46 GMT 55.572830 6.245644 38,000 253 461 0
2022-12-04 13:33:41 GMT 55.575531 6.260709 38,000 253 461 0
2022-12-04 13:33:38 GMT 55.577507 6.271992 38,000 253 460 64
2022-12-04 13:33:35 GMT 55.579742 6.284429 38,000 253 460 64
2022-12-04 13:33:31 GMT 55.581741 6.296024 38,000 253 460 64
2022-12-04 13:33:28 GMT 55.583977 6.308641 38,000 253 460 0
2022-12-04 13:33:25 GMT 55.585556 6.317555 38,000 253 460 0
2022-12-04 13:33:22 GMT 55.588165 6.332417 38,000 253 460 0
2022-12-04 13:33:19 GMT 55.590088 6.343106 38,000 253 460 0
2022-12-04 13:33:15 GMT 55.592560 6.357255 38,000 253 460 64
2022-12-04 13:33:11 GMT 55.594574 6.368658 38,000 253 460 0
2022-12-04 13:33:08 GMT 55.598328 6.389965 38,000 253 460 -64
2022-12-04 13:33:05 GMT 55.598328 6.389965 38,000 253 460 -64
2022-12-04 13:33:02 GMT 55.600479 6.402199 38,000 253 460 -64
2022-12-04 13:32:59 GMT 55.602722 6.414684 38,000 253 460 0
2022-12-04 13:32:56 GMT 55.603947 6.421680 38,000 253 460 0
2022-12-04 13:32:54 GMT 55.605560 6.430664 38,000 253 460 0
2022-12-04 13:32:51 GMT 55.607254 6.440048 38,000 253 460 0
2022-12-04 13:32:48 GMT 55.609222 6.451222 38,000 253 460 0
2022-12-04 13:32:45 GMT 55.611397 6.463394 38,000 253 460 0
2022-12-04 13:32:41 GMT 55.613800 6.476773 38,000 253 460 0
2022-12-04 13:32:38 GMT 55.615448 6.486012 38,000 253 460 0
2022-12-04 13:32:35 GMT 55.617634 6.498327 38,000 253 459 0
2022-12-04 13:32:31 GMT 55.620239 6.513176 38,000 253 459 0
2022-12-04 13:32:28 GMT 55.622726 6.527377 38,000 253 459 0
2022-12-04 13:32:25 GMT 55.623962 6.534285 38,000 253 459 0
2022-12-04 13:32:22 GMT 55.626480 6.548601 38,000 253 459 0
2022-12-04 13:32:19 GMT 55.627670 6.555425 38,000 253 459 0
2022-12-04 13:32:14 GMT 55.631058 6.574818 38,000 253 459 0
2022-12-04 13:32:08 GMT 55.634903 6.596541 38,000 253 458 0
2022-12-04 13:32:05 GMT 55.637100 6.608859 38,000 253 459 0
2022-12-04 13:32:03 GMT 55.639664 6.623341 38,000 253 459 0
2022-12-04 13:32:00 GMT 55.642166 6.637545 38,000 253 458 0
2022-12-04 13:31:56 GMT 55.642166 6.637545 38,000 253 458 0
2022-12-04 13:31:52 GMT 55.644653 6.651556 38,000 253 458 0
2022-12-04 13:31:48 GMT 55.647263 6.666454 38,000 253 459 0
2022-12-04 13:31:44 GMT 55.650127 6.682777 38,000 253 459 0
2022-12-04 13:31:40 GMT 55.652390 6.696001 38,000 254 458 0
2022-12-04 13:31:37 GMT 55.654587 6.708485 38,000 254 458 0
2022-12-04 13:31:33 GMT 55.656647 6.720720 38,000 254 458 0
2022-12-04 13:31:30 GMT 55.658386 6.730707 38,000 254 458 0
2022-12-04 13:31:27 GMT 55.659950 6.739855 38,000 254 458 64
2022-12-04 13:31:24 GMT 55.662090 6.752300 38,000 254 458 64
2022-12-04 13:31:21 GMT 55.663742 6.762002 38,000 254 458 64
2022-12-04 13:31:18 GMT 55.666260 6.776650 38,000 254 458 0
2022-12-04 13:31:13 GMT 55.668915 6.792214 38,000 254 458 0
2022-12-04 13:31:10 GMT 55.670883 6.803700 38,000 254 458 0
2022-12-04 13:31:06 GMT 55.673126 6.816933 38,000 254 457 0
2022-12-04 13:31:03 GMT 55.675220 6.829033 38,000 254 456 -64
2022-12-04 13:31:00 GMT 55.677338 6.841569 38,000 254 457 0
2022-12-04 13:30:55 GMT 55.681644 6.866798 38,000 254 457 0
2022-12-04 13:30:52 GMT 55.681644 6.866798 38,000 254 457 0
2022-12-04 13:30:47 GMT 55.684891 6.886014 38,000 254 457 0
2022-12-04 13:30:43 GMT 55.687740 6.903019 38,000 254 457 0
2022-12-04 13:30:39 GMT 55.692719 6.932623 38,000 254 457 0
2022-12-04 13:30:34 GMT 55.692719 6.932623 38,000 254 457 0
2022-12-04 13:30:30 GMT 55.695328 6.948020 38,000 254 457 0
2022-12-04 13:30:26 GMT 55.697159 6.958923 38,000 254 457 0
2022-12-04 13:30:23 GMT 55.699722 6.973905 38,000 254 456 0
2022-12-04 13:30:20 GMT 55.701241 6.982670 38,000 254 456 0
2022-12-04 13:30:17 GMT 55.703011 6.993141 38,000 254 456 0
2022-12-04 13:30:14 GMT 55.705059 7.004900 38,000 254 456 0
2022-12-04 13:30:11 GMT 55.706642 7.014256 38,000 254 456 0
2022-12-04 13:30:08 GMT 55.708511 7.025174 38,000 254 456 0
2022-12-04 13:30:04 GMT 55.710846 7.038907 38,000 254 456 0
2022-12-04 13:30:01 GMT 55.712742 7.049961 38,000 254 456 0
2022-12-04 13:29:58 GMT 55.714138 7.058287 38,000 254 456 0
2022-12-04 13:29:54 GMT 55.716557 7.072363 38,000 254 456 0
2022-12-04 13:29:51 GMT 55.719543 7.089761 38,000 254 456 0
2022-12-04 13:29:48 GMT 55.720375 7.094679 38,000 254 456 0
2022-12-04 13:29:45 GMT 55.723160 7.110984 38,000 254 456 0
2022-12-04 13:29:42 GMT 55.724075 7.116477 38,000 254 456 0
2022-12-04 13:29:39 GMT 55.726009 7.127895 38,000 254 456 -64
2022-12-04 13:29:36 GMT 55.727737 7.137867 38,000 254 456 -64
2022-12-04 13:29:33 GMT 55.729874 7.150555 38,000 254 456 -64
2022-12-04 13:29:29 GMT 55.732498 7.166249 38,000 254 455 -64
2022-12-04 13:29:26 GMT 55.733963 7.174738 38,000 254 455 0
2022-12-04 13:29:23 GMT 55.736156 7.187977 38,000 254 455 0
2022-12-04 13:29:19 GMT 55.738312 7.200623 38,000 254 455 0
2022-12-04 13:29:16 GMT 55.739647 7.208576 38,000 254 455 0
2022-12-04 13:29:13 GMT 55.741695 7.220936 38,000 254 455 0
2022-12-04 13:29:10 GMT 55.743851 7.233582 38,000 254 455 0
2022-12-04 13:29:07 GMT 55.745327 7.242479 38,000 254 455 0
2022-12-04 13:29:04 GMT 55.746956 7.252092 38,000 254 455 0
2022-12-04 13:29:01 GMT 55.748772 7.262650 38,000 254 455 0
2022-12-04 13:28:56 GMT 55.752075 7.282219 38,000 254 455 0
2022-12-04 13:28:52 GMT 55.754498 7.296467 38,000 254 455 0
2022-12-04 13:28:49 GMT 55.756393 7.307739 38,000 254 455 0
2022-12-04 13:28:45 GMT 55.758270 7.318525 38,000 254 455 0
2022-12-04 13:28:42 GMT 55.760735 7.333202 38,000 254 454 64
2022-12-04 13:28:37 GMT 55.763901 7.352257 38,000 254 454 0
2022-12-04 13:28:34 GMT 55.765064 7.359037 38,000 254 454 0
2022-12-04 13:28:30 GMT 55.767441 7.373371 38,000 254 454 0
2022-12-04 13:28:26 GMT 55.770370 7.390966 38,000 254 454 0
2022-12-04 13:28:22 GMT 55.772469 7.403584 38,000 254 454 0
2022-12-04 13:28:19 GMT 55.774609 7.416372 38,000 254 454 0
2022-12-04 13:28:15 GMT 55.776306 7.426841 38,000 254 454 0
2022-12-04 13:28:11 GMT 55.778915 7.442405 38,000 254 454 0
2022-12-04 13:28:07 GMT 55.781265 7.456627 38,000 254 454 64
2022-12-04 13:28:04 GMT 55.783222 7.468643 38,000 254 454 64
2022-12-04 13:28:01 GMT 55.787842 7.496671 38,000 254 454 -64
2022-12-04 13:27:56 GMT 55.789307 7.505576 38,000 254 454 -64
2022-12-04 13:27:53 GMT 55.789307 7.505576 38,000 254 454 -64
2022-12-04 13:27:49 GMT 55.791504 7.518810 38,000 254 454 -64
2022-12-04 13:27:46 GMT 55.793648 7.532072 38,000 254 454 0
2022-12-04 13:27:43 GMT 55.795441 7.543030 38,000 254 454 0
2022-12-04 13:27:40 GMT 55.796860 7.551470 38,000 254 454 0
2022-12-04 13:27:37 GMT 55.800632 7.574215 38,000 254 453 0
2022-12-04 13:27:34 GMT 55.802719 7.586809 38,000 255 452 0
2022-12-04 13:27:30 GMT 55.802719 7.586809 38,000 254 453 0
2022-12-04 13:27:27 GMT 55.804913 7.600136 38,000 254 453 0
2022-12-04 13:27:24 GMT 55.806152 7.607533 38,000 254 453 0
2022-12-04 13:27:21 GMT 55.808716 7.623014 38,000 254 453 0
2022-12-04 13:27:18 GMT 55.810223 7.631979 38,000 254 453 0
2022-12-04 13:27:15 GMT 55.812561 7.646151 38,000 254 453 0
2022-12-04 13:27:10 GMT 55.814644 7.658758 38,000 254 453 0
2022-12-04 13:27:07 GMT 55.816181 7.668114 38,000 254 453 0
2022-12-04 13:27:04 GMT 55.820602 7.695236 38,000 254 453 0
2022-12-04 13:27:00 GMT 55.820602 7.695236 38,000 254 453 0
2022-12-04 13:26:57 GMT 55.822605 7.707510 38,000 254 453 64
2022-12-04 13:26:54 GMT 55.824139 7.716780 38,000 254 453 0
2022-12-04 13:26:51 GMT 55.825882 7.727550 38,000 254 453 0
2022-12-04 13:26:48 GMT 55.827484 7.737205 38,000 254 452 0
2022-12-04 13:26:45 GMT 55.829540 7.749910 38,000 254 452 0
2022-12-04 13:26:41 GMT 55.831375 7.761258 38,000 254 452 0
2022-12-04 13:26:38 GMT 55.833801 7.775990 38,000 254 452 0
2022-12-04 13:26:34 GMT 55.835545 7.786818 38,000 254 452 0
2022-12-04 13:26:31 GMT 55.837315 7.797632 38,000 254 452 0
2022-12-04 13:26:28 GMT 55.839317 7.810163 38,000 254 452 0
2022-12-04 13:26:25 GMT 55.841366 7.822695 38,000 254 452 0
2022-12-04 13:26:22 GMT 55.843227 7.834282 38,000 254 452 0
2022-12-04 13:26:19 GMT 55.844482 7.842007 38,000 254 452 0
2022-12-04 13:26:16 GMT 55.847946 7.863381 38,000 254 451 0
2022-12-04 13:26:13 GMT 55.847946 7.863381 38,000 255 452 0
2022-12-04 13:26:10 GMT 55.849560 7.873678 38,000 255 452 0
2022-12-04 13:26:07 GMT 55.851242 7.884189 38,000 254 451 0
2022-12-04 13:26:04 GMT 55.853394 7.897755 38,000 255 452 0
2022-12-04 13:26:00 GMT 55.855133 7.908492 38,000 255 452 0
2022-12-04 13:25:57 GMT 55.856865 7.919426 38,000 254 451 0
2022-12-04 13:25:53 GMT 55.861149 7.946205 38,000 254 452 0
2022-12-04 13:25:50 GMT 55.861149 7.946205 38,000 254 451 0
2022-12-04 13:25:47 GMT 55.862873 7.956762 38,000 255 451 0
2022-12-04 13:25:43 GMT 55.864975 7.969666 38,000 254 451 0
2022-12-04 13:25:39 GMT 55.867172 7.983482 38,000 254 451 0
2022-12-04 13:25:36 GMT 55.868690 7.992897 38,000 254 451 0
2022-12-04 13:25:32 GMT 55.872940 8.019104 38,000 254 451 0
2022-12-04 13:25:29 GMT 55.872940 8.019104 38,000 254 451 0
2022-12-04 13:25:26 GMT 55.874405 8.028176 38,000 254 451 0
2022-12-04 13:25:23 GMT 55.876831 8.043074 38,000 254 451 0
2022-12-04 13:25:19 GMT 55.878845 8.055559 38,000 254 451 -64
2022-12-04 13:25:16 GMT 55.883560 8.084689 38,000 254 451 -64
2022-12-04 13:25:11 GMT 55.883560 8.084689 38,000 254 451 -64
2022-12-04 13:25:07 GMT 55.885986 8.099670 37,000 255 451 0
2022-12-04 13:25:03 GMT 55.888382 8.114433 38,000 255 451 64
2022-12-04 13:25:00 GMT 55.889500 8.121471 38,000 255 451 64
2022-12-04 13:24:56 GMT 55.891968 8.136921 38,000 255 451 0
2022-12-04 13:24:53 GMT 55.894043 8.149858 38,000 255 451 0
2022-12-04 13:24:49 GMT 55.896057 8.162426 38,000 255 451 -64
2022-12-04 13:24:45 GMT 55.897980 8.174577 38,000 255 451 -64
2022-12-04 13:24:42 GMT 55.900223 8.188560 38,000 255 451 0
2022-12-04 13:24:39 GMT 55.901367 8.195634 38,000 255 451 64
2022-12-04 13:24:36 GMT 55.903511 8.209362 38,000 255 451 0
2022-12-04 13:24:32 GMT 55.905945 8.224765 38,000 255 451 64
2022-12-04 13:24:29 GMT 55.907639 8.235501 38,000 255 451 64
2022-12-04 13:24:26 GMT 55.909058 8.244740 38,000 255 451 0
2022-12-04 13:24:22 GMT 55.911301 8.259055 38,000 255 451 0
2022-12-04 13:24:19 GMT 55.913361 8.272122 38,000 255 451 0
2022-12-04 13:24:14 GMT 55.915382 8.284893 38,000 255 451 0
2022-12-04 13:24:10 GMT 55.917709 8.299838 38,000 255 451 0
2022-12-04 13:24:06 GMT 55.920364 8.316817 38,000 255 451 0
2022-12-04 13:24:01 GMT 55.923668 8.337679 38,000 255 451 0
2022-12-04 13:23:58 GMT 55.924644 8.344116 38,000 255 451 0
2022-12-04 13:23:53 GMT 55.927551 8.362510 38,000 255 451 0
2022-12-04 13:23:50 GMT 55.929153 8.372747 38,000 255 451 0
2022-12-04 13:23:47 GMT 55.930710 8.382485 38,000 255 451 0
2022-12-04 13:23:44 GMT 55.932423 8.393469 38,000 255 451 0
2022-12-04 13:23:41 GMT 55.934830 8.409035 38,000 255 450 0
2022-12-04 13:23:38 GMT 55.936005 8.416386 38,000 255 451 0
2022-12-04 13:23:35 GMT 55.937218 8.424196 38,000 255 451 0
2022-12-04 13:23:32 GMT 55.940010 8.441792 38,000 255 451 0
2022-12-04 13:23:28 GMT 55.942017 8.454729 38,000 255 451 0
2022-12-04 13:23:25 GMT 55.943127 8.461618 38,000 255 451 0
2022-12-04 13:23:21 GMT 55.945503 8.476725 38,000 255 451 0
2022-12-04 13:23:18 GMT 55.946804 8.485308 38,000 255 451 0
2022-12-04 13:23:15 GMT 55.949341 8.501254 38,000 255 451 0
2022-12-04 13:23:10 GMT 55.952160 8.519297 38,000 255 451 -64
2022-12-04 13:23:07 GMT 55.953003 8.524808 38,000 255 450 0
2022-12-04 13:23:04 GMT 55.954952 8.537149 38,000 255 450 0
2022-12-04 13:23:00 GMT 55.959095 8.563328 38,000 255 450 0
2022-12-04 13:22:57 GMT 55.959095 8.563328 38,000 255 450 0
2022-12-04 13:22:54 GMT 55.960556 8.572665 38,000 255 450 0
2022-12-04 13:22:50 GMT 55.962818 8.587017 38,000 255 450 0
2022-12-04 13:22:47 GMT 55.966599 8.611117 38,000 255 450 0
2022-12-04 13:22:43 GMT 55.966599 8.611117 38,000 255 450 0
2022-12-04 13:22:40 GMT 55.968246 8.621521 38,000 255 450 0
2022-12-04 13:22:37 GMT 55.970352 8.634838 38,000 255 450 0
2022-12-04 13:22:34 GMT 55.972366 8.647738 38,000 255 450 0
2022-12-04 13:22:31 GMT 55.973850 8.657055 38,000 255 450 0
2022-12-04 13:22:27 GMT 55.975670 8.668900 38,000 255 450 -64
2022-12-04 13:22:24 GMT 55.977390 8.679800 38,000 255 451 0
2022-12-04 13:22:20 GMT 55.979393 8.692589 38,000 255 450 64
2022-12-04 13:22:17 GMT 55.981255 8.704863 38,000 255 450 64
2022-12-04 13:22:14 GMT 55.982712 8.714072 38,000 255 450 64
2022-12-04 13:22:11 GMT 55.985001 8.729054 38,000 255 450 64
2022-12-04 13:22:08 GMT 55.988525 8.752108 38,000 255 450 64
2022-12-04 13:22:05 GMT 55.988525 8.752108 38,000 255 450 0
2022-12-04 13:22:02 GMT 55.989624 8.759266 38,000 255 450 -64
2022-12-04 13:21:59 GMT 55.991318 8.770336 38,000 255 450 -64
2022-12-04 13:21:56 GMT 55.992462 8.777826 38,000 255 450 -64
2022-12-04 13:21:53 GMT 55.994293 8.789978 38,000 255 450 0
2022-12-04 13:21:50 GMT 55.996170 8.802130 38,000 255 450 0
2022-12-04 13:21:46 GMT 55.997967 8.814125 38,000 255 450 0
2022-12-04 13:21:43 GMT 55.999969 8.827098 38,000 255 450 0
2022-12-04 13:21:39 GMT 56.002110 8.841162 38,000 255 451 64
2022-12-04 13:21:35 GMT 56.006161 8.868113 38,000 255 451 64
2022-12-04 13:21:32 GMT 56.006161 8.868113 38,000 255 451 0
2022-12-04 13:21:29 GMT 56.007790 8.878756 38,000 255 451 0
2022-12-04 13:21:24 GMT 56.010395 8.896351 38,000 255 451 -64
2022-12-04 13:21:21 GMT 56.011734 8.905168 38,000 255 451 -64
2022-12-04 13:21:18 GMT 56.013199 8.914989 38,000 255 450 64
2022-12-04 13:21:14 GMT 56.015610 8.930769 38,000 255 451 0
2022-12-04 13:21:11 GMT 56.017052 8.940554 38,000 255 450 0
2022-12-04 13:21:08 GMT 56.020935 8.966009 38,000 255 450 64
2022-12-04 13:21:04 GMT 56.020935 8.966009 38,000 255 450 64
2022-12-04 13:21:01 GMT 56.022629 8.977162 38,000 255 450 0
2022-12-04 13:20:58 GMT 56.024460 8.988980 38,000 255 451 0
2022-12-04 13:20:54 GMT 56.028038 9.012737 38,000 255 451 0
2022-12-04 13:20:51 GMT 56.028038 9.012737 38,000 255 451 0
2022-12-04 13:20:47 GMT 56.029949 9.025269 38,000 255 451 0
2022-12-04 13:20:44 GMT 56.032135 9.039431 38,000 255 451 0
2022-12-04 13:20:41 GMT 56.033707 9.049821 38,000 255 451 -64
2022-12-04 13:20:37 GMT 56.035534 9.061747 38,000 256 453 0
2022-12-04 13:20:33 GMT 56.038139 9.078913 38,000 255 451 0
2022-12-04 13:20:30 GMT 56.039585 9.088440 38,000 255 451 0
2022-12-04 13:20:27 GMT 56.042587 9.108332 38,000 255 451 -64
2022-12-04 13:20:24 GMT 56.042587 9.108332 38,000 255 451 -64
2022-12-04 13:20:21 GMT 56.044601 9.121649 38,000 255 451 -64
2022-12-04 13:20:18 GMT 56.046524 9.134300 38,000 255 451 0
2022-12-04 13:20:13 GMT 56.048859 9.149864 38,000 255 451 0
2022-12-04 13:20:09 GMT 56.052383 9.173584 38,000 255 451 0
2022-12-04 13:20:03 GMT 56.054352 9.186485 38,000 255 451 0
2022-12-04 13:20:00 GMT 56.055691 9.195471 38,000 255 451 0
2022-12-04 13:19:57 GMT 56.057281 9.206293 38,000 256 452 0
2022-12-04 13:19:54 GMT 56.059368 9.220190 38,000 256 452 64
2022-12-04 13:19:50 GMT 56.061310 9.233176 38,000 256 452 64
2022-12-04 13:19:47 GMT 56.064304 9.253321 38,000 256 453 0
2022-12-04 13:19:44 GMT 56.064304 9.253321 38,000 256 452 0
2022-12-04 13:19:41 GMT 56.066620 9.268632 38,000 256 452 0
2022-12-04 13:19:38 GMT 56.067719 9.275957 38,000 256 453 0
2022-12-04 13:19:34 GMT 56.069798 9.290142 38,000 256 452 -64
2022-12-04 13:19:31 GMT 56.071239 9.299755 38,000 256 452 -64
2022-12-04 13:19:28 GMT 56.073009 9.311771 38,000 256 452 0
2022-12-04 13:19:25 GMT 56.074638 9.322586 38,000 256 453 0
2022-12-04 13:19:22 GMT 56.076221 9.333057 38,000 256 453 0
2022-12-04 13:19:18 GMT 56.080410 9.361296 38,000 256 453 64
2022-12-04 13:19:15 GMT 56.080410 9.361296 38,000 256 453 64
2022-12-04 13:19:12 GMT 56.081528 9.368849 38,000 256 453 64
2022-12-04 13:19:09 GMT 56.082870 9.377830 38,000 256 453 64
2022-12-04 13:19:06 GMT 56.084553 9.389277 38,000 256 453 0
2022-12-04 13:19:02 GMT 56.087067 9.406099 38,000 256 453 0
2022-12-04 13:18:59 GMT 56.090652 9.430561 38,000 256 454 -64
2022-12-04 13:18:55 GMT 56.090652 9.430561 38,000 256 454 -64
2022-12-04 13:18:52 GMT 56.092026 9.439836 38,000 256 454 -64
2022-12-04 13:18:49 GMT 56.093956 9.452705 38,000 256 454 -64
2022-12-04 13:18:46 GMT 56.095680 9.464464 38,000 256 453 0
2022-12-04 13:18:42 GMT 56.097309 9.475536 38,000 256 453 0
2022-12-04 13:18:39 GMT 56.098938 9.486351 38,000 256 453 64
2022-12-04 13:18:36 GMT 56.103455 9.516907 38,000 256 454 64
2022-12-04 13:18:32 GMT 56.103455 9.516907 38,000 256 453 0
2022-12-04 13:18:29 GMT 56.104385 9.523258 38,000 256 453 0
2022-12-04 13:18:26 GMT 56.106293 9.536304 38,000 256 453 0
2022-12-04 13:18:23 GMT 56.107922 9.547548 38,000 256 453 -64
2022-12-04 13:18:20 GMT 56.109741 9.560020 38,000 256 453 -64
2022-12-04 13:18:15 GMT 56.111710 9.573420 38,000 256 453 -64
2022-12-04 13:18:12 GMT 56.113743 9.587460 38,000 256 453 -64
2022-12-04 13:18:09 GMT 56.115372 9.598446 38,025 256 453 -64
2022-12-04 13:18:05 GMT 56.117001 9.609861 38,025 256 453 0
2022-12-04 13:18:01 GMT 56.119400 9.626354 38,000 256 454 64
2022-12-04 13:17:58 GMT 56.120682 9.635509 38,000 256 454 64
2022-12-04 13:17:55 GMT 56.122650 9.649409 38,000 256 454 64
2022-12-04 13:17:52 GMT 56.123749 9.656811 38,000 256 454 0
2022-12-04 13:17:49 GMT 56.125797 9.671144 38,000 256 454 0
2022-12-04 13:17:46 GMT 56.127380 9.682217 38,000 256 454 0
2022-12-04 13:17:41 GMT 56.129837 9.699430 38,000 256 453 -64
2022-12-04 13:17:38 GMT 56.130981 9.707669 38,000 256 454 -128
2022-12-04 13:17:34 GMT 56.133179 9.723067 38,000 256 453 -64
2022-12-04 13:17:31 GMT 56.134872 9.734553 38,000 256 453 0
2022-12-04 13:17:28 GMT 56.136429 9.745539 38,000 256 453 64
2022-12-04 13:17:25 GMT 56.138134 9.757318 38,000 256 453 64
2022-12-04 13:17:22 GMT 56.139717 9.768133 38,000 256 453 64
2022-12-04 13:17:19 GMT 56.141300 9.779119 38,000 256 453 0
2022-12-04 13:17:15 GMT 56.143707 9.795726 38,000 256 453 -64
2022-12-04 13:17:10 GMT 56.145954 9.811563 38,000 256 453 -64
2022-12-04 13:17:07 GMT 56.147865 9.824867 38,000 256 453 0
2022-12-04 13:17:04 GMT 56.149200 9.834179 38,000 256 453 0
2022-12-04 13:17:01 GMT 56.150658 9.844179 38,000 256 453 64
2022-12-04 13:16:58 GMT 56.152222 9.855069 38,000 256 453 0
2022-12-04 13:16:54 GMT 56.154289 9.869499 38,000 256 453 0
2022-12-04 13:16:51 GMT 56.155884 9.880621 38,000 256 453 0
2022-12-04 13:16:48 GMT 56.157349 9.890608 38,000 256 453 0
2022-12-04 13:16:45 GMT 56.159130 9.902973 38,000 256 453 0
2022-12-04 13:16:42 GMT 56.160759 9.914389 38,000 256 453 0
2022-12-04 13:16:39 GMT 56.162666 9.927607 38,000 256 453 0
2022-12-04 13:16:35 GMT 56.164719 9.941961 38,000 256 453 0
2022-12-04 13:16:31 GMT 56.166092 9.951616 38,000 256 453 0
2022-12-04 13:16:28 GMT 56.167881 9.963999 38,000 256 453 0
2022-12-04 13:16:24 GMT 56.169884 9.977989 38,000 256 453 0
2022-12-04 13:16:21 GMT 56.171265 9.987904 38,000 256 453 0
2022-12-04 13:16:18 GMT 56.172958 9.999556 38,000 256 453 0
2022-12-04 13:16:14 GMT 56.175190 10.015068 38,000 256 453 0
2022-12-04 13:16:11 GMT 56.178223 10.036344 38,000 256 453 0
2022-12-04 13:16:08 GMT 56.178223 10.036344 38,000 256 453 0
2022-12-04 13:16:04 GMT 56.180264 10.050945 38,000 256 453 0
2022-12-04 13:16:00 GMT 56.182343 10.065308 38,000 256 453 0
2022-12-04 13:15:57 GMT 56.183849 10.076265 38,000 256 453 0
2022-12-04 13:15:54 GMT 56.185478 10.087423 38,000 256 453 64
2022-12-04 13:15:51 GMT 56.187103 10.098932 38,000 256 452 0
2022-12-04 13:15:48 GMT 56.188599 10.109739 38,000 256 453 0
2022-12-04 13:15:44 GMT 56.190693 10.124588 38,000 256 453 -64
2022-12-04 13:15:40 GMT 56.192322 10.135918 38,000 256 453 0
2022-12-04 13:15:37 GMT 56.193859 10.147076 38,000 256 453 0
2022-12-04 13:15:34 GMT 56.196373 10.164757 38,000 256 453 0
2022-12-04 13:15:31 GMT 56.197403 10.172091 38,000 256 453 0
2022-12-04 13:15:26 GMT 56.199417 10.186740 38,000 256 453 0
2022-12-04 13:15:23 GMT 56.201118 10.199089 38,000 256 453 0
2022-12-04 13:15:20 GMT 56.202484 10.208962 38,000 256 453 0
2022-12-04 13:15:17 GMT 56.206009 10.234280 38,000 256 453 0
2022-12-04 13:15:14 GMT 56.207062 10.242004 38,000 256 453 0
2022-12-04 13:15:11 GMT 56.207062 10.242004 38,000 256 453 0
2022-12-04 13:15:08 GMT 56.209213 10.257152 38,000 256 453 0
2022-12-04 13:15:04 GMT 56.210850 10.269041 38,000 256 453 64
2022-12-04 13:15:01 GMT 56.212738 10.282288 38,000 256 453 64
2022-12-04 13:14:57 GMT 56.214478 10.294855 38,000 256 453 0
2022-12-04 13:14:53 GMT 56.216492 10.309254 38,000 256 453 0
2022-12-04 13:14:50 GMT 56.217865 10.318992 38,000 256 453 0
2022-12-04 13:14:47 GMT 56.219696 10.332059 38,000 256 453 0
2022-12-04 13:14:43 GMT 56.223465 10.359077 38,000 256 453 0
2022-12-04 13:14:40 GMT 56.223465 10.359077 38,000 256 453 -64
2022-12-04 13:14:37 GMT 56.224503 10.366350 38,000 256 453 0
2022-12-04 13:14:32 GMT 56.227097 10.384912 38,000 256 453 0
2022-12-04 13:14:29 GMT 56.228714 10.396312 38,000 256 452 0
2022-12-04 13:14:26 GMT 56.230213 10.407228 38,000 256 453 0
2022-12-04 13:14:23 GMT 56.231918 10.419201 38,000 256 453 0
2022-12-04 13:14:20 GMT 56.233288 10.428944 38,000 256 453 0
2022-12-04 13:14:17 GMT 56.235336 10.443878 38,000 257 453 0
2022-12-04 13:14:12 GMT 56.237503 10.459401 38,000 257 453 0
2022-12-04 13:14:09 GMT 56.238594 10.467224 38,000 257 453 0
2022-12-04 13:14:06 GMT 56.242226 10.493574 38,000 257 453 0
2022-12-04 13:14:03 GMT 56.242226 10.493574 38,000 257 453 0
2022-12-04 13:14:00 GMT 56.243484 10.502586 38,000 256 453 0
2022-12-04 13:13:57 GMT 56.244972 10.513401 38,000 257 453 0
2022-12-04 13:13:53 GMT 56.248810 10.541132 38,000 257 453 0
2022-12-04 13:13:50 GMT 56.248810 10.541132 38,000 257 453 0
2022-12-04 13:13:46 GMT 56.250607 10.554342 38,000 257 453 0
2022-12-04 13:13:42 GMT 56.252514 10.568247 38,000 257 453 0
2022-12-04 13:13:38 GMT 56.254517 10.582924 38,000 257 452 0
2022-12-04 13:13:35 GMT 56.255722 10.591902 38,000 257 452 0
2022-12-04 13:13:32 GMT 56.257370 10.604054 38,000 257 451 0
2022-12-04 13:13:27 GMT 56.260288 10.625410 38,000 257 451 0
2022-12-04 13:13:23 GMT 56.263546 10.649614 38,000 257 451 0
2022-12-04 13:13:20 GMT 56.263546 10.649614 38,000 257 451 0
2022-12-04 13:13:17 GMT 56.264755 10.658455 38,000 257 451 0
2022-12-04 13:13:14 GMT 56.266525 10.671415 38,000 257 451 0
2022-12-04 13:13:11 GMT 56.267487 10.678544 38,000 257 451 0
2022-12-04 13:13:07 GMT 56.269878 10.696135 38,000 257 451 0
2022-12-04 13:13:04 GMT 56.271561 10.708757 38,000 257 451 0
2022-12-04 13:13:01 GMT 56.272705 10.717413 38,000 257 451 0
2022-12-04 13:12:57 GMT 56.275177 10.735640 38,000 257 451 0
2022-12-04 13:12:54 GMT 56.276211 10.743170 38,000 257 451 0
2022-12-04 13:12:51 GMT 56.278061 10.756864 38,000 257 451 0
2022-12-04 13:12:48 GMT 56.278839 10.762773 38,000 257 451 0
2022-12-04 13:12:44 GMT 56.280853 10.777588 38,000 257 451 0
2022-12-04 13:12:41 GMT 56.282539 10.790119 38,000 257 451 0
2022-12-04 13:12:38 GMT 56.283981 10.801105 38,000 257 451 0
2022-12-04 13:12:34 GMT 56.285660 10.813465 38,000 257 451 0
2022-12-04 13:12:31 GMT 56.287445 10.826610 38,000 257 451 0
2022-12-04 13:12:28 GMT 56.289139 10.839428 38,000 257 451 0
2022-12-04 13:12:24 GMT 56.291382 10.855907 38,000 257 451 0
2022-12-04 13:12:21 GMT 56.292297 10.862732 38,000 257 451 0
2022-12-04 13:12:18 GMT 56.293900 10.874551 38,000 257 451 0
2022-12-04 13:12:15 GMT 56.295437 10.885992 38,000 257 452 0
2022-12-04 13:12:11 GMT 56.297195 10.898937 38,000 257 452 0
2022-12-04 13:12:08 GMT 56.298752 10.910506 38,000 257 452 0
2022-12-04 13:12:04 GMT 56.300743 10.925303 38,000 257 452 0
2022-12-04 13:12:01 GMT 56.302139 10.935974 38,000 257 452 0
2022-12-04 13:11:58 GMT 56.303696 10.947543 38,000 257 452 0
2022-12-04 13:11:54 GMT 56.305630 10.962124 38,000 257 452 0
2022-12-04 13:11:50 GMT 56.307167 10.973625 38,000 257 452 0
2022-12-04 13:11:46 GMT 56.309727 10.992765 38,000 257 453 0
2022-12-04 13:11:42 GMT 56.313309 11.019870 38,000 257 453 0
2022-12-04 13:11:38 GMT 56.313309 11.019870 38,000 257 453 0
2022-12-04 13:11:35 GMT 56.314754 11.030617 38,000 257 453 0
2022-12-04 13:11:31 GMT 56.317127 11.048641 38,000 257 453 0
2022-12-04 13:11:28 GMT 56.318207 11.056741 38,000 257 453 0
2022-12-04 13:11:25 GMT 56.319580 11.066811 38,000 257 454 0
2022-12-04 13:11:21 GMT 56.322155 11.086235 38,000 257 454 0
2022-12-04 13:11:18 GMT 56.323288 11.094693 38,000 257 454 0
2022-12-04 13:11:15 GMT 56.325878 11.114388 38,000 257 454 0
2022-12-04 13:11:12 GMT 56.325878 11.114388 38,000 257 454 0
2022-12-04 13:11:08 GMT 56.329464 11.141510 38,000 257 454 0
2022-12-04 13:11:05 GMT 56.329464 11.141510 38,000 257 455 0
2022-12-04 13:11:02 GMT 56.330723 11.151037 38,000 257 455 0
2022-12-04 13:10:58 GMT 56.332817 11.166916 38,000 257 455 0
2022-12-04 13:10:55 GMT 56.334229 11.177757 38,000 257 455 0
2022-12-04 13:10:52 GMT 56.335693 11.189076 38,000 257 455 0
2022-12-04 13:10:49 GMT 56.336975 11.198564 38,000 257 455 0
2022-12-04 13:10:46 GMT 56.338898 11.213379 38,000 257 455 0
2022-12-04 13:10:43 GMT 56.339939 11.221333 38,000 257 455 0
2022-12-04 13:10:40 GMT 56.341522 11.233177 38,000 257 455 0
2022-12-04 13:10:37 GMT 56.342972 11.244257 38,000 257 455 0
2022-12-04 13:10:33 GMT 56.344849 11.258406 38,000 257 455 0
2022-12-04 13:10:30 GMT 56.346222 11.269143 38,000 257 456 0
2022-12-04 13:10:27 GMT 56.347713 11.280384 38,000 257 456 0
2022-12-04 13:10:24 GMT 56.349110 11.291113 38,000 257 456 0
2022-12-04 13:10:20 GMT 56.351074 11.305764 38,000 257 456 0
2022-12-04 13:10:17 GMT 56.352631 11.317915 38,000 257 456 0
2022-12-04 13:10:14 GMT 56.354141 11.329318 38,000 257 456 0
2022-12-04 13:10:11 GMT 56.355881 11.342551 38,000 257 456 0
2022-12-04 13:10:08 GMT 56.358421 11.361923 38,000 257 456 0
2022-12-04 13:10:05 GMT 56.358421 11.361923 38,000 257 456 0
2022-12-04 13:10:02 GMT 56.359680 11.371515 38,000 257 456 0
2022-12-04 13:09:57 GMT 56.362747 11.394903 38,000 257 457 0
2022-12-04 13:09:52 GMT 56.364471 11.408014 38,000 257 457 0
2022-12-04 13:09:49 GMT 56.365997 11.419789 38,000 257 456 0
2022-12-04 13:09:45 GMT 56.368286 11.437267 38,000 257 456 0
2022-12-04 13:09:42 GMT 56.369499 11.446724 38,000 257 456 0
2022-12-04 13:09:39 GMT 56.370850 11.457195 38,000 257 456 0
2022-12-04 13:09:35 GMT 56.373047 11.474055 38,000 257 457 0
2022-12-04 13:09:32 GMT 56.374283 11.483876 38,000 258 457 0
2022-12-04 13:09:29 GMT 56.375702 11.495112 38,000 258 457 0
2022-12-04 13:09:25 GMT 56.377945 11.512673 38,000 258 457 0
2022-12-04 13:09:22 GMT 56.378998 11.521139 38,000 258 457 0
2022-12-04 13:09:19 GMT 56.380417 11.532482 38,000 258 455 576
2022-12-04 13:09:16 GMT 56.381790 11.543369 38,000 258 457 -128
2022-12-04 13:09:13 GMT 56.383186 11.554270 38,025 258 457 -128
2022-12-04 13:09:10 GMT 56.386490 11.580105 38,025 258 455 512
2022-12-04 13:09:06 GMT 56.386490 11.580105 38,000 258 455 576
2022-12-04 13:09:03 GMT 56.387878 11.591159 38,000 258 455 576
2022-12-04 13:09:00 GMT 56.389252 11.602062 37,975 258 455 512
2022-12-04 13:08:57 GMT 56.390717 11.613298 37,925 258 455 512
2022-12-04 13:08:54 GMT 56.393600 11.636103 37,875 258 455 576
2022-12-04 13:08:51 GMT 56.393600 11.636103 37,850 258 455 576
2022-12-04 13:08:48 GMT 56.394825 11.645594 37,825 258 454 576
2022-12-04 13:08:44 GMT 56.397289 11.664820 37,800 258 454 512
2022-12-04 13:08:41 GMT 56.398457 11.674175 37,725 258 454 512
2022-12-04 13:08:36 GMT 56.402134 11.703186 37,700 258 453 640
2022-12-04 13:08:32 GMT 56.402134 11.703186 37,700 258 453 640
2022-12-04 13:08:29 GMT 56.403622 11.714773 37,650 258 453 704
2022-12-04 13:08:26 GMT 56.405159 11.727047 37,575 258 453 640
2022-12-04 13:08:23 GMT 56.406834 11.740437 37,575 258 453 640
2022-12-04 13:08:20 GMT 56.407906 11.748590 37,575 258 453 640
2022-12-04 13:08:16 GMT 56.409767 11.763525 37,525 258 453 640
2022-12-04 13:08:13 GMT 56.412560 11.785583 37,450 258 444 704
2022-12-04 13:08:10 GMT 56.412560 11.785583 37,475 258 452 576
2022-12-04 13:08:06 GMT 56.415771 11.811419 37,400 258 452 512
2022-12-04 13:08:03 GMT 56.415771 11.811419 37,375 258 452 512
2022-12-04 13:08:00 GMT 56.417168 11.822233 37,350 258 451 576
2022-12-04 13:07:56 GMT 56.418892 11.836224 37,325 258 451 576
2022-12-04 13:07:53 GMT 56.420334 11.847811 37,300 258 450 640
2022-12-04 13:07:50 GMT 56.421844 11.859741 37,275 258 450 640
2022-12-04 13:07:45 GMT 56.425461 11.888289 37,100 258 448 640
2022-12-04 13:07:42 GMT 56.425461 11.888289 37,150 258 449 512
2022-12-04 13:07:37 GMT 56.427689 11.906090 37,150 258 449 512
2022-12-04 13:07:34 GMT 56.429085 11.917419 37,125 258 449 576
2022-12-04 13:07:30 GMT 56.431091 11.933233 37,050 258 448 640
2022-12-04 13:07:27 GMT 56.432484 11.944628 37,050 258 448 640
2022-12-04 13:07:24 GMT 56.433647 11.953897 37,025 258 448 640
2022-12-04 13:07:21 GMT 56.434845 11.963445 37,000 258 447 576
2022-12-04 13:07:18 GMT 56.436115 11.973553 36,975 258 447 576
2022-12-04 13:07:15 GMT 56.438187 11.990079 36,925 258 446 512
2022-12-04 13:07:11 GMT 56.439697 12.002314 36,900 258 445 512
2022-12-04 13:07:07 GMT 56.441483 12.016713 36,850 258 445 576
2022-12-04 13:07:04 GMT 56.442589 12.025652 36,850 258 445 640
2022-12-04 13:07:00 GMT 56.444550 12.041681 36,750 258 444 832
2022-12-04 13:06:57 GMT 56.446079 12.054062 36,725 258 444 832
2022-12-04 13:06:54 GMT 56.447479 12.065235 36,675 258 444 768
2022-12-04 13:06:51 GMT 56.448452 12.073116 36,675 258 444 768
2022-12-04 13:06:48 GMT 56.449757 12.083502 36,625 258 444 768
2022-12-04 13:06:45 GMT 56.453064 12.110429 36,575 258 444 832
2022-12-04 13:06:41 GMT 56.454086 12.118607 36,525 258 444 768
2022-12-04 13:06:38 GMT 56.454086 12.118607 36,475 258 444 704
2022-12-04 13:06:34 GMT 56.455856 12.132735 36,450 258 444 768
2022-12-04 13:06:31 GMT 56.457577 12.146931 36,400 258 444 896
2022-12-04 13:06:27 GMT 56.459656 12.163447 36,075 258 444 1152
2022-12-04 13:06:24 GMT 56.460342 12.168940 36,275 258 444 1152
2022-12-04 13:06:21 GMT 56.461899 12.181591 36,225 258 444 1152
2022-12-04 13:06:18 GMT 56.463394 12.193880 36,175 258 445 1088
2022-12-04 13:06:15 GMT 56.464920 12.205811 36,100 258 445 896
2022-12-04 13:06:11 GMT 56.466560 12.219200 36,075 258 445 640
2022-12-04 13:06:08 GMT 56.467587 12.227697 36,050 258 444 576
2022-12-04 13:06:04 GMT 56.469635 12.244263 36,000 258 443 256
2022-12-04 13:06:01 GMT 56.471100 12.256081 36,000 258 443 64
2022-12-04 13:05:58 GMT 56.472008 12.263231 36,000 258 442 0
2022-12-04 13:05:55 GMT 56.473526 12.275807 36,000 258 442 0
2022-12-04 13:05:52 GMT 56.476456 12.299361 36,000 258 442 0
2022-12-04 13:05:48 GMT 56.476456 12.299361 36,000 258 442 0
2022-12-04 13:05:44 GMT 56.478333 12.314842 36,000 258 442 0
2022-12-04 13:05:40 GMT 56.480152 12.329493 36,000 258 442 0
2022-12-04 13:05:37 GMT 56.483276 12.355208 36,000 258 442 0
2022-12-04 13:05:33 GMT 56.483276 12.355208 36,000 258 442 0
2022-12-04 13:05:30 GMT 56.484558 12.365861 36,000 258 441 0
2022-12-04 13:05:26 GMT 56.486435 12.381592 36,000 259 442 0
2022-12-04 13:05:23 GMT 56.487671 12.392245 36,000 259 442 0
2022-12-04 13:05:19 GMT 56.489136 12.404979 36,000 259 442 0
2022-12-04 13:05:16 GMT 56.490627 12.417727 36,000 259 442 0
2022-12-04 13:05:13 GMT 56.491837 12.428367 36,000 259 442 0
2022-12-04 13:05:09 GMT 56.493282 12.440729 36,000 259 442 0
2022-12-04 13:05:05 GMT 56.495144 12.456951 36,000 259 442 0
2022-12-04 13:05:01 GMT 56.496819 12.471542 36,000 259 442 0
2022-12-04 13:04:57 GMT 56.498447 12.485447 36,000 259 442 0
2022-12-04 13:04:53 GMT 56.500031 12.499445 36,000 259 442 0
2022-12-04 13:04:50 GMT 56.501801 12.514887 36,000 259 442 0
2022-12-04 13:04:47 GMT 56.502453 12.520208 36,000 259 442 0
2022-12-04 13:04:44 GMT 56.503571 12.530079 36,000 259 442 0
2022-12-04 13:04:41 GMT 56.505249 12.544472 36,000 259 442 0
2022-12-04 13:04:37 GMT 56.506874 12.558575 36,000 259 442 0
2022-12-04 13:04:33 GMT 56.508728 12.574851 36,000 259 443 -64
2022-12-04 13:04:30 GMT 56.509438 12.580719 36,000 259 443 -64
2022-12-04 13:04:27 GMT 56.510971 12.594410 36,000 259 443 0
2022-12-04 13:04:23 GMT 56.513531 12.616682 36,000 259 443 0
2022-12-04 13:04:20 GMT 56.513531 12.616682 36,000 259 443 0
2022-12-04 13:04:17 GMT 56.514790 12.627754 36,000 259 443 0
2022-12-04 13:04:14 GMT 56.516277 12.640886 36,000 259 443 0
2022-12-04 13:04:11 GMT 56.517723 12.653675 36,000 259 442 0
2022-12-04 13:04:07 GMT 56.519024 12.665348 36,000 259 442 0
2022-12-04 13:04:04 GMT 56.521637 12.688460 36,000 259 442 0
2022-12-04 13:04:01 GMT 56.521637 12.688460 36,000 259 442 0
2022-12-04 13:03:57 GMT 56.523495 12.705259 36,000 259 442 0
2022-12-04 13:03:52 GMT 56.525299 12.721086 36,000 259 442 0
2022-12-04 13:03:49 GMT 56.526718 12.733903 36,000 259 442 0
2022-12-04 13:03:45 GMT 56.528522 12.750149 36,000 259 442 0
2022-12-04 13:03:41 GMT 56.529968 12.763283 36,000 259 442 0
2022-12-04 13:03:38 GMT 56.530758 12.770061 36,000 259 442 0
2022-12-04 13:03:35 GMT 56.533272 12.792463 36,000 259 443 0
2022-12-04 13:03:32 GMT 56.533272 12.792463 36,000 259 443 0
2022-12-04 13:03:29 GMT 56.534317 12.802069 36,000 259 443 0
2022-12-04 13:03:26 GMT 56.535969 12.817011 36,000 259 443 0
2022-12-04 13:03:23 GMT 56.536743 12.823792 36,000 259 443 0
2022-12-04 13:03:20 GMT 56.538025 12.835194 36,000 259 443 0
2022-12-04 13:03:17 GMT 56.539230 12.846193 36,000 259 443 0
2022-12-04 13:03:11 GMT 56.541824 12.869318 36,000 259 443 0
2022-12-04 13:03:08 GMT 56.543045 12.880440 36,000 259 443 0
2022-12-04 13:03:03 GMT 56.545094 12.899065 36,000 259 443 0
2022-12-04 13:03:00 GMT 56.546127 12.908436 36,000 259 443 0
2022-12-04 13:02:57 GMT 56.547188 12.918205 36,000 259 443 0
2022-12-04 13:02:54 GMT 56.548599 12.930991 36,000 259 443 0
2022-12-04 13:02:51 GMT 56.551208 12.954379 36,000 259 443 0
2022-12-04 13:02:47 GMT 56.551208 12.954379 36,000 259 443 0
2022-12-04 13:02:44 GMT 56.552914 12.969961 36,000 259 443 0
2022-12-04 13:02:41 GMT 56.553680 12.977184 36,000 259 443 0
2022-12-04 13:02:38 GMT 56.555149 12.990131 36,000 259 443 0
2022-12-04 13:02:35 GMT 56.556290 13.000821 36,000 259 443 0
2022-12-04 13:02:30 GMT 56.558167 13.017717 36,000 259 443 0
2022-12-04 13:02:27 GMT 56.559292 13.028069 36,000 259 443 0
2022-12-04 13:02:23 GMT 56.561279 13.045932 36,000 259 443 0
2022-12-04 13:02:20 GMT 56.562286 13.055253 36,000 259 443 0
2022-12-04 13:02:17 GMT 56.563251 13.063860 36,000 259 443 0
2022-12-04 13:02:13 GMT 56.565033 13.079889 36,000 259 443 0
2022-12-04 13:02:10 GMT 56.566269 13.090876 36,000 259 443 0
2022-12-04 13:02:06 GMT 56.567673 13.103771 36,000 259 443 0
2022-12-04 13:02:03 GMT 56.569023 13.115873 36,000 259 443 0
2022-12-04 13:02:00 GMT 56.570572 13.129744 36,000 259 443 0
2022-12-04 13:01:57 GMT 56.571583 13.138876 36,000 259 443 0
2022-12-04 13:01:52 GMT 56.573444 13.156128 36,000 259 444 0
2022-12-04 13:01:49 GMT 56.574795 13.168058 36,000 259 444 0
2022-12-04 13:01:46 GMT 56.575836 13.177684 36,000 259 444 0
2022-12-04 13:01:42 GMT 56.577450 13.192606 36,000 259 444 0
2022-12-04 13:01:39 GMT 56.578568 13.202820 36,000 259 444 0
2022-12-04 13:01:36 GMT 56.579636 13.212948 36,000 259 444 0
2022-12-04 13:01:33 GMT 56.581081 13.226166 36,000 259 444 0
2022-12-04 13:01:30 GMT 56.582062 13.235279 36,000 259 445 0
2022-12-04 13:01:27 GMT 56.583481 13.248846 36,000 260 445 0
2022-12-04 13:01:23 GMT 56.585266 13.265325 36,000 260 445 0
2022-12-04 13:01:20 GMT 56.586182 13.273981 36,000 260 445 0
2022-12-04 13:01:16 GMT 56.587601 13.287381 36,000 259 445 0
2022-12-04 13:01:13 GMT 56.588715 13.297577 36,000 259 445 0
2022-12-04 13:01:09 GMT 56.590256 13.312267 36,000 259 445 0
2022-12-04 13:01:05 GMT 56.591694 13.325558 36,000 259 445 0
2022-12-04 13:01:02 GMT 56.593185 13.339317 36,000 259 445 0
2022-12-04 13:00:59 GMT 56.594284 13.349590 36,000 259 445 0
2022-12-04 13:00:54 GMT 56.595932 13.365040 36,000 259 445 0
2022-12-04 13:00:50 GMT 56.597977 13.384183 36,000 259 445 0
2022-12-04 13:00:46 GMT 56.599468 13.397827 36,000 259 445 0
2022-12-04 13:00:43 GMT 56.600647 13.408985 36,000 259 445 0
2022-12-04 13:00:39 GMT 56.602074 13.421926 36,000 259 445 0
2022-12-04 13:00:36 GMT 56.603394 13.434477 36,000 259 445 0
2022-12-04 13:00:32 GMT 56.604961 13.449126 36,000 259 445 0
2022-12-04 13:00:29 GMT 56.605957 13.458424 36,000 259 445 0
2022-12-04 13:00:25 GMT 56.607384 13.471808 36,000 259 445 0
2022-12-04 13:00:22 GMT 56.608612 13.483315 36,000 259 445 0
2022-12-04 13:00:19 GMT 56.609940 13.495760 36,000 260 445 0
2022-12-04 13:00:16 GMT 56.611267 13.508034 36,000 260 445 0
2022-12-04 13:00:08 GMT 56.614243 13.536358 36,000 260 445 0
2022-12-04 13:00:03 GMT 56.616226 13.555003 36,000 259 445 0
2022-12-04 12:59:58 GMT 56.617764 13.569621 36,000 259 445 0
2022-12-04 12:59:54 GMT 56.619812 13.588759 36,000 260 445 0
2022-12-04 12:59:49 GMT 56.621628 13.605947 36,000 260 445 0
2022-12-04 12:59:44 GMT 56.623348 13.622515 36,000 260 444 0
2022-12-04 12:59:38 GMT 56.625641 13.644247 36,000 260 444 0
2022-12-04 12:59:34 GMT 56.627014 13.657551 36,000 260 444 0
2022-12-04 12:59:30 GMT 56.628700 13.673726 36,000 260 444 0
2022-12-04 12:59:27 GMT 56.629772 13.683737 36,000 260 444 0
2022-12-04 12:59:24 GMT 56.630905 13.694887 36,000 260 444 0
2022-12-04 12:59:18 GMT 56.633240 13.717117 36,000 260 444 0
2022-12-04 12:59:15 GMT 56.635025 13.734112 36,000 260 444 0
2022-12-04 12:59:08 GMT 56.637081 13.753820 36,000 260 444 0
2022-12-04 12:59:04 GMT 56.638641 13.768616 36,000 260 443 0
2022-12-04 12:58:58 GMT 56.641041 13.791652 36,000 260 443 0
2022-12-04 12:58:54 GMT 56.642387 13.804764 36,000 260 443 0
2022-12-04 12:58:47 GMT 56.645184 13.831699 36,000 260 443 0
2022-12-04 12:58:44 GMT 56.646252 13.842330 36,000 260 443 0
2022-12-04 12:58:38 GMT 56.648998 13.868822 36,000 260 443 0
2022-12-04 12:58:35 GMT 56.649719 13.875904 36,000 260 443 0
2022-12-04 12:58:31 GMT 56.651142 13.890174 36,000 260 443 0
2022-12-04 12:58:27 GMT 56.652466 13.903198 36,000 260 443 0
2022-12-04 12:58:24 GMT 56.653793 13.916245 36,000 260 443 0
2022-12-04 12:58:21 GMT 56.654938 13.927402 36,000 260 443 0
2022-12-04 12:58:18 GMT 56.656170 13.939258 36,000 260 443 0
2022-12-04 12:58:11 GMT 56.658543 13.963180 36,000 260 443 0
2022-12-04 12:58:07 GMT 56.660110 13.978386 36,000 260 443 0
2022-12-04 12:58:04 GMT 56.661335 13.991000 36,000 260 443 0
2022-12-04 12:58:00 GMT 56.662628 14.003706 36,000 260 443 0
2022-12-04 12:57:57 GMT 56.663635 14.013748 36,000 260 443 0
2022-12-04 12:57:51 GMT 56.665924 14.036579 36,000 260 443 0
2022-12-04 12:57:47 GMT 56.667339 14.050805 36,000 260 442 0
2022-12-04 12:57:41 GMT 56.669575 14.073486 36,000 260 443 0
2022-12-04 12:57:37 GMT 56.671005 14.087648 36,000 260 443 0
2022-12-04 12:57:32 GMT 56.672607 14.104042 36,000 260 443 0
2022-12-04 12:57:26 GMT 56.674744 14.125051 36,000 260 443 0
2022-12-04 12:57:21 GMT 56.676773 14.145498 36,000 260 443 0
2022-12-04 12:57:16 GMT 56.678513 14.162664 36,000 260 443 0
2022-12-04 12:57:10 GMT 56.680664 14.184380 36,000 260 443 0
2022-12-04 12:57:07 GMT 56.682220 14.199486 36,000 260 443 0
2022-12-04 12:57:00 GMT 56.684471 14.221979 36,000 260 443 0
2022-12-04 12:56:56 GMT 56.685963 14.236864 36,000 260 443 0
2022-12-04 12:56:51 GMT 56.688034 14.257593 36,000 260 443 0
2022-12-04 12:56:46 GMT 56.689594 14.272924 36,000 260 443 0
2022-12-04 12:56:40 GMT 56.691605 14.293385 36,000 260 442 0
2022-12-04 12:56:36 GMT 56.693390 14.310894 36,000 260 442 0
2022-12-04 12:56:30 GMT 56.695358 14.330721 36,000 260 441 0
2022-12-04 12:56:26 GMT 56.696949 14.347170 36,000 260 441 0
2022-12-04 12:56:20 GMT 56.699066 14.368401 36,000 260 441 0
2022-12-04 12:56:16 GMT 56.700581 14.383673 36,000 260 441 0
2022-12-04 12:56:12 GMT 56.701927 14.397583 36,000 260 441 0
2022-12-04 12:56:09 GMT 56.702866 14.406853 36,000 260 441 0
2022-12-04 12:56:05 GMT 56.704285 14.421358 36,000 260 441 0
2022-12-04 12:56:01 GMT 56.705795 14.436722 36,000 260 441 0
2022-12-04 12:55:56 GMT 56.707890 14.458362 36,000 260 441 0
2022-12-04 12:55:52 GMT 56.709274 14.472685 36,000 261 441 0
2022-12-04 12:55:48 GMT 56.710236 14.482727 36,000 261 441 0
2022-12-04 12:55:45 GMT 56.711426 14.495131 36,000 261 441 0
2022-12-04 12:55:41 GMT 56.712730 14.508687 36,000 261 441 0
2022-12-04 12:55:35 GMT 56.715012 14.532609 36,000 261 440 0
2022-12-04 12:55:28 GMT 56.717239 14.555597 36,000 261 440 0
2022-12-04 12:55:25 GMT 56.718567 14.569416 36,000 261 440 0
2022-12-04 12:55:21 GMT 56.719807 14.582401 36,000 261 440 0
2022-12-04 12:55:18 GMT 56.721062 14.595514 36,000 261 440 0
2022-12-04 12:55:15 GMT 56.722000 14.605379 36,000 261 440 0
2022-12-04 12:55:11 GMT 56.723419 14.619884 36,000 261 440 0
2022-12-04 12:55:07 GMT 56.724930 14.635849 36,000 260 440 0
2022-12-04 12:55:04 GMT 56.725624 14.642826 36,000 260 440 0
2022-12-04 12:55:01 GMT 56.726974 14.656736 36,000 261 440 0
2022-12-04 12:54:54 GMT 56.729187 14.679623 36,000 261 440 0
2022-12-04 12:54:50 GMT 56.730743 14.695897 36,000 261 440 0
2022-12-04 12:54:45 GMT 56.732700 14.716452 36,000 261 440 0
2022-12-04 12:54:41 GMT 56.734268 14.732666 36,000 261 439 0
2022-12-04 12:54:34 GMT 56.736237 14.753310 36,000 261 440 0
2022-12-04 12:54:30 GMT 56.737587 14.767397 36,000 261 440 0
2022-12-04 12:54:24 GMT 56.739853 14.791117 36,000 261 439 0
2022-12-04 12:54:16 GMT 56.742615 14.819848 36,000 261 439 0
2022-12-04 12:54:13 GMT 56.743408 14.828265 36,000 261 439 0
2022-12-04 12:54:10 GMT 56.744659 14.840984 36,000 261 439 0
2022-12-04 12:54:07 GMT 56.745689 14.851655 36,000 261 439 0
2022-12-04 12:54:04 GMT 56.746899 14.864236 36,000 261 439 0
2022-12-04 12:53:57 GMT 56.749737 14.893828 36,000 261 439 0
2022-12-04 12:53:53 GMT 56.750439 14.901359 36,000 261 439 0
2022-12-04 12:53:48 GMT 56.752396 14.922009 36,000 261 440 0
2022-12-04 12:53:43 GMT 56.753906 14.938059 36,000 261 440 0
2022-12-04 12:53:37 GMT 56.756149 14.962177 36,000 261 440 0
2022-12-04 12:53:34 GMT 56.757278 14.974365 36,000 261 440 0
2022-12-04 12:53:27 GMT 56.759445 14.997883 36,000 261 440 0
2022-12-04 12:53:23 GMT 56.762878 15.034962 36,000 261 440 0
2022-12-04 12:53:17 GMT 56.762878 15.034962 36,000 261 439 0
2022-12-04 12:53:13 GMT 56.764069 15.047579 36,000 261 440 0
2022-12-04 12:53:08 GMT 56.765671 15.065346 36,000 261 438 0
2022-12-04 12:53:03 GMT 56.767429 15.084672 36,000 261 438 0
2022-12-04 12:52:59 GMT 56.768875 15.100193 36,000 261 438 0
2022-12-04 12:52:53 GMT 56.770874 15.122681 36,000 261 438 0
2022-12-04 12:52:48 GMT 56.772270 15.137920 36,000 261 438 0
2022-12-04 12:52:43 GMT 56.774223 15.159095 36,000 261 439 0
2022-12-04 12:52:36 GMT 56.776505 15.183903 36,000 261 439 0
2022-12-04 12:52:33 GMT 56.777573 15.195551 36,000 261 438 0
2022-12-04 12:52:28 GMT 56.778946 15.210657 36,000 261 438 0
2022-12-04 12:52:22 GMT 56.780930 15.232544 36,000 261 439 0
2022-12-04 12:52:17 GMT 56.782608 15.250654 36,000 261 439 0
2022-12-04 12:52:12 GMT 56.784420 15.270376 36,000 261 439 0
2022-12-04 12:52:05 GMT 56.786839 15.296690 36,000 261 439 0
2022-12-04 12:52:02 GMT 56.787678 15.306347 36,000 261 439 0
2022-12-04 12:51:52 GMT 56.791168 15.344553 36,000 261 439 0
2022-12-04 12:51:45 GMT 56.793495 15.371025 36,000 261 440 0
2022-12-04 12:51:41 GMT 56.794476 15.381745 36,000 261 439 0
2022-12-04 12:51:37 GMT 56.795837 15.397081 36,000 261 440 0
2022-12-04 12:51:31 GMT 56.797806 15.418968 36,000 261 440 0
2022-12-04 12:51:26 GMT 56.799545 15.438280 36,000 261 440 0
2022-12-04 12:51:21 GMT 56.801086 15.455903 36,000 261 440 0
2022-12-04 12:51:17 GMT 56.802574 15.472117 36,000 261 440 0
2022-12-04 12:51:11 GMT 56.804344 15.492229 36,000 261 440 0
2022-12-04 12:51:06 GMT 56.806160 15.512252 36,000 261 440 0
2022-12-04 12:51:02 GMT 56.807602 15.528820 36,000 261 440 0
2022-12-04 12:50:51 GMT 56.810898 15.566254 36,000 261 441 0
2022-12-04 12:50:41 GMT 56.814213 15.603687 36,000 261 441 0
2022-12-04 12:50:37 GMT 56.815796 15.621786 36,000 261 441 0
2022-12-04 12:50:30 GMT 56.817566 15.642050 36,000 261 441 0
2022-12-04 12:50:25 GMT 56.819366 15.662556 36,000 261 441 0
2022-12-04 12:50:20 GMT 56.820778 15.678465 36,000 261 441 0
2022-12-04 12:50:10 GMT 56.823990 15.715513 36,000 262 441 0
2022-12-04 12:50:00 GMT 56.827156 15.751648 36,000 262 441 0
2022-12-04 12:49:51 GMT 56.830318 15.788683 36,000 262 441 0
2022-12-04 12:49:40 GMT 56.833530 15.826426 36,000 262 441 0
2022-12-04 12:49:30 GMT 56.836742 15.864169 36,000 262 441 0
2022-12-04 12:49:20 GMT 56.839771 15.899786 36,000 262 441 0
2022-12-04 12:49:09 GMT 56.843124 15.938845 36,000 262 441 0
2022-12-04 12:49:00 GMT 56.846149 15.974653 36,000 262 441 0
2022-12-04 12:48:49 GMT 56.849316 16.012573 36,000 262 441 0
2022-12-04 12:48:40 GMT 56.852432 16.049873 36,000 262 441 0
2022-12-04 12:48:29 GMT 56.855553 16.086731 36,000 262 441 0
2022-12-04 12:48:19 GMT 56.858719 16.124563 36,000 262 440 0
2022-12-04 12:48:09 GMT 56.861694 16.160624 36,000 262 440 0
2022-12-04 12:47:59 GMT 56.864769 16.197657 36,000 262 440 0
2022-12-04 12:47:48 GMT 56.867981 16.236376 36,000 262 440 0
2022-12-04 12:47:39 GMT 56.870956 16.272125 36,000 262 440 0
2022-12-04 12:47:29 GMT 56.874126 16.311066 36,000 262 440 0
2022-12-04 12:47:22 GMT 56.876175 16.335640 36,000 262 439 0
2022-12-04 12:47:18 GMT 56.877136 16.347570 36,000 262 439 0
2022-12-04 12:47:08 GMT 56.880112 16.384306 36,000 262 439 0
2022-12-04 12:47:02 GMT 56.881943 16.407223 36,000 262 439 0
2022-12-04 12:46:58 GMT 56.883064 16.420752 36,000 262 439 0
2022-12-04 12:46:46 GMT 56.886509 16.463367 36,000 262 438 0
2022-12-04 12:46:40 GMT 56.888626 16.489706 36,000 262 438 0
2022-12-04 12:46:37 GMT 56.889221 16.496916 36,000 262 438 0
2022-12-04 12:46:33 GMT 56.890732 16.515799 36,000 262 438 0
2022-12-04 12:46:30 GMT 56.891373 16.523781 36,000 262 438 0
2022-12-04 12:46:27 GMT 56.892235 16.534779 36,000 262 438 0
2022-12-04 12:46:24 GMT 56.893387 16.549015 36,000 262 438 0
2022-12-04 12:46:17 GMT 56.895355 16.573734 36,000 262 438 0
2022-12-04 12:46:07 GMT 56.898010 16.606607 36,000 262 437 0
2022-12-04 12:46:01 GMT 56.899887 16.630297 36,000 262 437 0
2022-12-04 12:45:57 GMT 56.900986 16.643600 36,000 262 437 0
2022-12-04 12:45:47 GMT 56.904007 16.681194 36,000 262 437 0
2022-12-04 12:45:38 GMT 56.906433 16.711836 36,000 262 437 0
2022-12-04 12:45:35 GMT 56.907318 16.722609 36,000 262 437 0
2022-12-04 12:45:26 GMT 56.909969 16.756277 36,000 262 436 0
2022-12-04 12:45:19 GMT 56.912247 16.784706 36,000 262 436 0
2022-12-04 12:45:16 GMT 56.912842 16.792173 36,000 262 436 0
2022-12-04 12:45:08 GMT 56.915314 16.823416 36,000 262 436 0
2022-12-04 12:44:57 GMT 56.918610 16.865730 36,000 262 436 0
2022-12-04 12:44:46 GMT 56.921516 16.902554 36,000 262 436 0
2022-12-04 12:44:39 GMT 56.923508 16.928043 36,000 262 435 0
2022-12-04 12:44:36 GMT 56.924469 16.940317 36,000 262 436 0
2022-12-04 12:44:25 GMT 56.927567 16.981054 36,000 262 435 0
2022-12-04 12:44:15 GMT 56.930176 17.014544 36,000 262 435 0
2022-12-04 12:44:05 GMT 56.932968 17.050871 36,000 263 435 0
2022-12-04 12:43:54 GMT 56.936142 17.093782 36,000 263 434 0
2022-12-04 12:43:47 GMT 56.937763 17.116432 36,000 263 434 0
2022-12-04 12:43:44 GMT 56.938602 17.127773 36,000 263 434 0
2022-12-04 12:43:41 GMT 56.939667 17.142448 36,000 263 434 0
2022-12-04 12:43:34 GMT 56.941132 17.162962 36,000 263 434 0
2022-12-04 12:43:27 GMT 56.943256 17.191299 36,000 263 435 0
2022-12-04 12:43:24 GMT 56.943924 17.200727 36,000 263 434 0
2022-12-04 12:43:21 GMT 56.945072 17.216108 36,000 263 434 0
2022-12-04 12:43:15 GMT 56.946377 17.233828 36,000 263 434 0
2022-12-04 12:43:11 GMT 56.947769 17.252169 36,000 263 433 0
2022-12-04 12:43:06 GMT 56.948730 17.265444 36,000 263 434 0
2022-12-04 12:43:03 GMT 56.949539 17.276621 36,000 263 433 0
2022-12-04 12:43:00 GMT 56.950562 17.290249 36,000 263 433 0
2022-12-04 12:42:53 GMT 56.952301 17.314024 36,000 263 433 0
2022-12-04 12:42:45 GMT 56.954475 17.344046 36,000 263 433 0
2022-12-04 12:42:42 GMT 56.955265 17.354410 36,000 263 433 0
2022-12-04 12:42:38 GMT 56.956146 17.366638 36,000 263 433 0
2022-12-04 12:42:32 GMT 56.957687 17.387726 36,000 263 432 0
2022-12-04 12:42:24 GMT 56.959873 17.417583 36,000 263 432 0
2022-12-04 12:42:21 GMT 56.960712 17.429102 36,000 263 432 0
2022-12-04 12:42:14 GMT 56.962692 17.455473 36,000 263 432 0
2022-12-04 12:42:09 GMT 56.963928 17.472553 36,000 263 432 0
2022-12-04 12:42:06 GMT 56.964890 17.485342 36,000 263 432 0
2022-12-04 12:42:01 GMT 56.965942 17.499847 36,000 263 432 0
2022-12-04 12:41:57 GMT 56.967453 17.521048 36,000 263 432 0
2022-12-04 12:41:54 GMT 56.967911 17.527742 36,000 263 432 0
2022-12-04 12:41:51 GMT 56.968643 17.537956 36,000 263 432 0
2022-12-04 12:41:46 GMT 56.969929 17.556417 36,000 263 432 0
2022-12-04 12:41:43 GMT 56.970631 17.566074 36,000 263 432 0
2022-12-04 12:41:40 GMT 56.971436 17.577953 36,000 263 432 0
2022-12-04 12:41:33 GMT 56.973312 17.604046 36,000 263 432 64
2022-12-04 12:41:30 GMT 56.974026 17.613918 36,000 263 432 64
2022-12-04 12:41:24 GMT 56.975830 17.638979 36,000 263 432 0
2022-12-04 12:41:21 GMT 56.976471 17.647905 36,000 263 432 0
2022-12-04 12:41:13 GMT 56.978485 17.676229 36,000 263 432 0
2022-12-04 12:41:10 GMT 56.979172 17.685671 36,000 263 432 0
2022-12-04 12:41:06 GMT 56.980408 17.703352 36,000 263 432 0
2022-12-04 12:41:02 GMT 56.981415 17.717342 36,000 263 432 0
2022-12-04 12:40:53 GMT 56.983616 17.749123 36,000 263 432 0
2022-12-04 12:40:45 GMT 56.985573 17.777208 36,000 263 432 0
2022-12-04 12:40:40 GMT 56.986725 17.793732 36,000 263 432 0
2022-12-04 12:40:35 GMT 56.988098 17.813301 36,000 263 432 0
2022-12-04 12:40:32 GMT 56.988876 17.825052 36,000 263 432 0
2022-12-04 12:40:29 GMT 56.989716 17.836658 36,000 263 432 0
2022-12-04 12:40:22 GMT 56.991257 17.859478 36,000 263 432 0
2022-12-04 12:40:19 GMT 56.992081 17.871494 36,000 263 432 0
2022-12-04 12:40:13 GMT 56.993813 17.896196 36,000 263 432 0
2022-12-04 12:40:02 GMT 56.996418 17.934383 36,000 263 431 0
2022-12-04 12:39:52 GMT 56.998764 17.969084 36,000 263 431 0
2022-12-04 12:39:48 GMT 56.999817 17.984447 36,000 263 431 64
2022-12-04 12:39:45 GMT 57.000732 17.997665 36,000 263 431 0
2022-12-04 12:39:42 GMT 57.001354 18.007034 36,000 263 431 0
2022-12-04 12:39:32 GMT 57.003754 18.042812 36,000 264 431 0
2022-12-04 12:39:24 GMT 57.005684 18.071268 36,000 264 431 0
2022-12-04 12:39:21 GMT 57.006363 18.081779 36,000 264 431 0
2022-12-04 12:39:12 GMT 57.008755 18.117430 36,000 263 431 0
2022-12-04 12:39:01 GMT 57.011261 18.154907 36,000 263 431 0
2022-12-04 12:38:51 GMT 57.013596 18.189461 36,000 263 431 0
2022-12-04 12:38:41 GMT 57.016109 18.227470 36,000 264 431 0
2022-12-04 12:38:35 GMT 57.017441 18.247175 36,000 264 431 0
2022-12-04 12:38:31 GMT 57.018482 18.263176 36,000 264 431 0
2022-12-04 12:38:24 GMT 57.020115 18.287895 36,000 264 431 0
2022-12-04 12:38:21 GMT 57.020966 18.300219 36,000 264 432 0
2022-12-04 12:38:11 GMT 57.023529 18.339357 36,000 264 432 0
2022-12-04 12:38:00 GMT 57.025772 18.373861 36,000 264 432 0
2022-12-04 12:37:52 GMT 57.027702 18.403694 36,000 264 432 0
2022-12-04 12:37:48 GMT 57.028633 18.418402 36,000 264 432 0
2022-12-04 12:37:45 GMT 57.029343 18.429565 36,000 264 431 0
2022-12-04 12:37:39 GMT 57.030624 18.449478 36,000 264 431 0
2022-12-04 12:37:35 GMT 57.031723 18.466644 36,000 264 431 0
2022-12-04 12:37:30 GMT 57.032913 18.485270 36,000 264 432 0
2022-12-04 12:37:24 GMT 57.034195 18.505354 36,000 264 432 0
2022-12-04 12:37:18 GMT 57.035614 18.527498 36,000 264 431 0
2022-12-04 12:37:14 GMT 57.036438 18.540545 36,000 264 431 0
2022-12-04 12:37:10 GMT 57.037617 18.559452 36,000 264 431 0
2022-12-04 12:37:04 GMT 57.038876 18.579210 36,000 264 431 64
2022-12-04 12:36:59 GMT 57.039898 18.595425 36,000 264 431 0
2022-12-04 12:36:52 GMT 57.041565 18.621397 36,000 264 431 -64
2022-12-04 12:36:48 GMT 57.042412 18.635027 36,000 264 431 0
2022-12-04 12:36:41 GMT 57.043949 18.659658 36,000 264 431 0
2022-12-04 12:36:38 GMT 57.044632 18.670921 36,000 264 431 0
2022-12-04 12:36:32 GMT 57.046089 18.694389 36,000 264 431 0
2022-12-04 12:36:28 GMT 57.046928 18.707855 36,000 264 431 0
2022-12-04 12:36:21 GMT 57.048512 18.733196 36,000 264 431 0
2022-12-04 12:36:17 GMT 57.049530 18.750229 36,000 264 430 0
2022-12-04 12:36:12 GMT 57.051819 18.786964 36,000 264 430 0
2022-12-04 12:36:07 GMT 57.051819 18.786964 36,000 264 430 0
2022-12-04 12:35:58 GMT 57.053631 18.817276 36,000 264 430 0
2022-12-04 12:35:45 GMT 57.056534 18.865070 36,000 264 430 0
2022-12-04 12:35:36 GMT 57.058456 18.896570 36,000 264 430 0
2022-12-04 12:35:28 GMT 57.060333 18.927212 36,000 264 429 0
2022-12-04 12:35:18 GMT 57.062569 18.963554 36,000 264 428 0
2022-12-04 12:35:12 GMT 57.063782 18.983135 36,000 264 429 0
2022-12-04 12:35:09 GMT 57.064384 18.993324 36,000 264 429 0
2022-12-04 12:35:07 GMT 57.064957 19.002829 36,000 264 429 0
2022-12-04 12:34:56 GMT 57.067131 19.040014 36,000 264 428 0
2022-12-04 12:34:47 GMT 57.069168 19.074497 36,000 264 428 0
2022-12-04 12:34:40 GMT 57.070541 19.098186 36,000 264 428 0
2022-12-04 12:34:37 GMT 57.071320 19.111338 36,000 264 428 0
2022-12-04 12:34:30 GMT 57.072811 19.136944 36,000 264 428 0
2022-12-04 12:34:26 GMT 57.073509 19.148905 36,000 264 428 0
2022-12-04 12:34:20 GMT 57.074707 19.169769 36,000 264 427 0
2022-12-04 12:34:17 GMT 57.075577 19.185219 36,000 264 427 0
2022-12-04 12:34:10 GMT 57.077087 19.212170 36,000 264 427 0
2022-12-04 12:34:06 GMT 57.077591 19.221010 36,000 264 427 0
2022-12-04 12:34:00 GMT 57.078918 19.243841 36,000 264 427 0
2022-12-04 12:33:56 GMT 57.079788 19.258862 36,000 264 427 0
2022-12-04 12:33:50 GMT 57.080978 19.279804 36,000 264 427 0
2022-12-04 12:33:45 GMT 57.081936 19.296156 36,000 264 427 0
2022-12-04 12:33:37 GMT 57.083679 19.325981 36,000 264 427 0
2022-12-04 12:33:34 GMT 57.084400 19.338329 36,000 264 427 0
2022-12-04 12:33:29 GMT 57.085285 19.354189 36,000 264 427 0
2022-12-04 12:33:25 GMT 57.086170 19.369162 36,000 264 427 0
2022-12-04 12:33:19 GMT 57.087433 19.390783 36,000 264 427 0
2022-12-04 12:33:16 GMT 57.088219 19.404692 36,000 264 427 0
2022-12-04 12:33:05 GMT 57.090363 19.441460 36,000 264 427 0
2022-12-04 12:32:55 GMT 57.092422 19.477730 36,000 264 427 0
2022-12-04 12:32:50 GMT 57.093475 19.495754 36,000 264 427 0
2022-12-04 12:32:45 GMT 57.094551 19.514111 36,000 264 427 0
2022-12-04 12:32:34 GMT 57.096680 19.551201 36,000 264 427 0
2022-12-04 12:32:28 GMT 57.097996 19.573915 36,000 265 427 0
2022-12-04 12:32:24 GMT 57.098831 19.588709 36,000 265 427 0
2022-12-04 12:32:20 GMT 57.099670 19.603773 36,000 265 427 0
2022-12-04 12:32:15 GMT 57.100788 19.624151 36,000 265 426 0
2022-12-04 12:32:09 GMT 57.101719 19.642048 36,000 265 426 0
2022-12-04 12:32:04 GMT 57.102604 19.660299 36,000 266 426 0
2022-12-04 12:31:54 GMT 57.104370 19.698057 36,000 266 426 0
2022-12-04 12:31:44 GMT 57.106003 19.733395 36,000 266 426 0
2022-12-04 12:31:38 GMT 57.106979 19.755564 36,000 266 426 0
2022-12-04 12:31:34 GMT 57.107620 19.770241 36,000 266 426 0
2022-12-04 12:31:28 GMT 57.108517 19.790718 36,000 266 426 0
2022-12-04 12:31:23 GMT 57.109177 19.806805 36,000 266 426 0
2022-12-04 12:31:19 GMT 57.109867 19.823412 36,000 266 426 0
2022-12-04 12:31:14 GMT 57.110752 19.845030 36,000 266 426 0
2022-12-04 12:31:07 GMT 57.111633 19.867535 36,000 266 426 0
2022-12-04 12:31:03 GMT 57.112148 19.880293 36,000 266 426 0
2022-12-04 12:30:53 GMT 57.113636 19.917681 36,000 266 425 0
2022-12-04 12:30:48 GMT 57.114288 19.933186 36,000 266 425 0
2022-12-04 12:30:43 GMT 57.115128 19.953146 36,000 266 425 0
2022-12-04 12:30:38 GMT 57.115906 19.972029 36,000 266 425 0
2022-12-04 12:30:27 GMT 57.117500 20.010887 36,000 266 425 0
2022-12-04 12:30:22 GMT 57.118286 20.030308 36,000 266 425 0
2022-12-04 12:30:17 GMT 57.118973 20.045929 36,000 266 425 0
2022-12-04 12:30:08 GMT 57.120438 20.079746 36,000 266 424 0
2022-12-04 12:29:58 GMT 57.122063 20.117029 36,000 266 424 0
2022-12-04 12:29:51 GMT 57.122902 20.137762 36,000 266 424 0
2022-12-04 12:29:47 GMT 57.123550 20.152617 36,000 266 424 0
2022-12-04 12:29:42 GMT 57.124390 20.172583 36,000 266 424 0
2022-12-04 12:29:37 GMT 57.125107 20.189695 36,000 266 424 0
2022-12-04 12:29:27 GMT 57.126671 20.226982 36,000 266 424 0
2022-12-04 12:29:15 GMT 57.128448 20.268917 36,000 266 424 0
2022-12-04 12:29:12 GMT 57.129044 20.283337 36,000 266 424 0
2022-12-04 12:29:06 GMT 57.129730 20.301018 36,000 266 424 0
2022-12-04 12:29:01 GMT 57.130398 20.318771 36,000 267 423 0
2022-12-04 12:28:57 GMT 57.131046 20.335958 36,000 267 423 0
2022-12-04 12:28:53 GMT 57.131561 20.350027 36,000 267 423 0
2022-12-04 12:28:47 GMT 57.132259 20.368210 36,000 267 423 0
2022-12-04 12:28:43 GMT 57.132843 20.384789 36,000 267 422 0
2022-12-04 12:28:37 GMT 57.133701 20.408169 36,000 267 422 -64
2022-12-04 12:28:25 GMT 57.135143 20.447063 36,000 266 423 0
2022-12-04 12:28:15 GMT 57.136597 20.484352 36,000 266 423 64
2022-12-04 12:28:06 GMT 57.137878 20.518684 36,000 267 422 0
2022-12-04 12:27:55 GMT 57.139286 20.556129 36,000 267 422 -64
2022-12-04 12:27:47 GMT 57.139984 20.588202 36,000 270 423 0
2022-12-04 12:27:44 GMT 57.139984 20.593872 36,000 270 423 0
2022-12-04 12:27:36 GMT 57.139526 20.623741 36,000 275 424 0
2022-12-04 12:27:32 GMT 57.138931 20.639877 36,000 275 424 0
2022-12-04 12:27:24 GMT 57.137924 20.665112 36,000 275 424 0
2022-12-04 12:27:20 GMT 57.137375 20.679531 36,000 275 424 0
2022-12-04 12:27:16 GMT 57.136772 20.694786 36,000 275 424 0
2022-12-04 12:27:12 GMT 57.136124 20.712240 36,000 275 424 0
2022-12-04 12:27:09 GMT 57.135704 20.723049 36,000 275 425 0
2022-12-04 12:27:04 GMT 57.135086 20.739441 36,000 275 425 0
2022-12-04 12:27:01 GMT 57.134720 20.748367 36,000 275 426 -64
2022-12-04 12:26:54 GMT 57.133667 20.774889 36,000 275 427 0
2022-12-04 12:26:49 GMT 57.133003 20.791361 36,000 275 428 0
2022-12-04 12:26:45 GMT 57.132492 20.804827 36,000 275 428 0
2022-12-04 12:26:42 GMT 57.132019 20.816259 36,000 275 429 0
2022-12-04 12:26:37 GMT 57.131187 20.836546 36,000 275 428 384
2022-12-04 12:26:34 GMT 57.130722 20.848330 36,000 275 429 -128
2022-12-04 12:26:31 GMT 57.130348 20.857544 36,000 275 428 64
2022-12-04 12:26:23 GMT 57.129181 20.887156 36,000 275 427 512
2022-12-04 12:26:20 GMT 57.128723 20.897799 35,950 275 427 1024
2022-12-04 12:26:13 GMT 57.127716 20.922861 35,850 275 427 832
2022-12-04 12:26:10 GMT 57.127213 20.934877 35,800 275 427 832
2022-12-04 12:26:05 GMT 57.126534 20.951815 35,725 275 427 896
2022-12-04 12:26:02 GMT 57.126114 20.961828 35,675 275 427 896
2022-12-04 12:25:59 GMT 57.125603 20.972988 35,650 275 426 768
2022-12-04 12:25:55 GMT 57.124531 20.998507 35,100 275 422 832
2022-12-04 12:25:52 GMT 57.124531 20.998507 35,550 275 426 832
2022-12-04 12:25:43 GMT 57.123001 21.035385 35,425 275 425 640
2022-12-04 12:25:35 GMT 57.121948 21.060619 35,100 275 422 832
2022-12-04 12:25:31 GMT 57.121445 21.072121 35,300 275 424 768
2022-12-04 12:25:24 GMT 57.120346 21.097870 35,200 275 423 832
2022-12-04 12:25:21 GMT 57.119888 21.108856 35,175 275 423 832
2022-12-04 12:25:12 GMT 57.118481 21.142481 35,025 275 422 832
2022-12-04 12:25:02 GMT 57.116898 21.178984 34,875 275 421 768
2022-12-04 12:24:52 GMT 57.115219 21.217690 34,750 275 420 704
2022-12-04 12:24:43 GMT 57.114075 21.243095 34,675 275 418 768
2022-12-04 12:24:40 GMT 57.113617 21.254339 34,625 275 418 832
2022-12-04 12:24:31 GMT 57.112148 21.288137 34,475 275 417 1088
2022-12-04 12:24:24 GMT 57.110985 21.314184 34,350 275 417 960
2022-12-04 12:24:20 GMT 57.110504 21.324720 34,300 275 417 1024
2022-12-04 12:24:13 GMT 57.109352 21.350599 34,175 275 416 1024
2022-12-04 12:24:10 GMT 57.108982 21.359461 34,125 275 416 1024
2022-12-04 12:24:01 GMT 57.107346 21.395788 33,975 275 415 896
2022-12-04 12:23:52 GMT 57.105679 21.433086 33,850 275 411 1152
2022-12-04 12:23:49 GMT 57.105679 21.433086 33,825 275 414 896
2022-12-04 12:23:43 GMT 57.104652 21.455767 33,700 275 413 1088
2022-12-04 12:23:39 GMT 57.104000 21.469942 33,625 275 413 1088
2022-12-04 12:23:33 GMT 57.103024 21.491030 33,525 275 412 1152
2022-12-04 12:23:29 GMT 57.102467 21.503258 33,450 275 412 1088
2022-12-04 12:23:23 GMT 57.101395 21.525908 33,200 275 411 1152
2022-12-04 12:23:19 GMT 57.100742 21.540291 33,275 275 411 1088
2022-12-04 12:23:10 GMT 57.099113 21.574402 33,075 275 410 1152
2022-12-04 12:23:02 GMT 57.098007 21.598692 32,950 276 410 1088
2022-12-04 12:22:59 GMT 57.097504 21.608992 32,900 276 409 1152
2022-12-04 12:22:51 GMT 57.096222 21.635771 32,750 275 409 1152
2022-12-04 12:22:48 GMT 57.095718 21.646929 31,075 276 407 1664
2022-12-04 12:22:41 GMT 57.094528 21.671562 32,550 275 408 1088
2022-12-04 12:22:38 GMT 57.094131 21.680189 32,500 275 407 1152
2022-12-04 12:22:31 GMT 57.092968 21.704376 32,350 275 407 1280
2022-12-04 12:22:28 GMT 57.092407 21.716957 32,275 275 407 1280
2022-12-04 12:22:22 GMT 57.091278 21.741171 32,125 275 407 1280
2022-12-04 12:22:19 GMT 57.090828 21.749741 32,075 275 406 1344
2022-12-04 12:22:11 GMT 57.089615 21.775257 31,900 276 406 1344
2022-12-04 12:22:08 GMT 57.089149 21.785534 31,825 276 406 1344
2022-12-04 12:22:01 GMT 57.088032 21.808216 31,675 276 406 1600
2022-12-04 12:21:58 GMT 57.087475 21.819735 31,575 276 406 1600
2022-12-04 12:21:51 GMT 57.086311 21.843212 31,400 276 406 1664
2022-12-04 12:21:48 GMT 57.085785 21.854210 31,325 276 407 1664
2022-12-04 12:21:40 GMT 57.084549 21.879187 31,125 276 407 1664
2022-12-04 12:21:37 GMT 57.084076 21.889462 31,025 276 407 1664
2022-12-04 12:21:30 GMT 57.082855 21.913347 30,850 276 407 1600
2022-12-04 12:21:27 GMT 57.082306 21.924849 30,750 276 408 1664
2022-12-04 12:21:20 GMT 57.081161 21.947851 30,575 276 408 1664
2022-12-04 12:21:17 GMT 57.080540 21.960340 30,475 276 408 1728
2022-12-04 12:21:08 GMT 57.078861 21.994009 30,175 276 409 1728
2022-12-04 12:21:04 GMT 57.078396 22.003576 30,100 276 409 1664
2022-12-04 12:21:00 GMT 57.077682 22.018147 29,975 276 409 1664
2022-12-04 12:20:57 GMT 57.077187 22.027943 29,900 276 409 1728
2022-12-04 12:20:50 GMT 57.075943 22.053080 29,700 276 410 1728
2022-12-04 12:20:40 GMT 57.074158 22.088699 29,450 276 408 1216
2022-12-04 12:20:29 GMT 57.072281 22.125521 29,225 276 406 1152
2022-12-04 12:20:23 GMT 57.070999 22.149811 29,100 276 405 1152
2022-12-04 12:20:19 GMT 57.070541 22.158823 29,050 276 404 1280
2022-12-04 12:20:15 GMT 57.068573 22.196589 28,900 276 403 1472
2022-12-04 12:20:09 GMT 57.068573 22.196589 28,775 276 403 1344
2022-12-04 12:20:05 GMT 57.068069 22.205772 28,600 278 401 1536
2022-12-04 12:19:59 GMT 57.066898 22.228176 28,575 276 401 1472
2022-12-04 12:19:54 GMT 57.066059 22.244923 28,175 277 401 1472
2022-12-04 12:19:47 GMT 57.064198 22.273096 28,225 280 401 1472
2022-12-04 12:19:44 GMT 57.063408 22.282133 28,175 280 401 1408
2022-12-04 12:19:39 GMT 57.062027 22.295809 28,075 282 401 1472
2022-12-04 12:19:36 GMT 57.060928 22.305851 27,950 283 401 1536
2022-12-04 12:19:29 GMT 57.057869 22.329357 27,825 286 401 1408
2022-12-04 12:19:22 GMT 57.054703 22.349825 27,675 289 400 1536
2022-12-04 12:19:19 GMT 57.052513 22.362139 27,575 289 400 1536
2022-12-04 12:19:13 GMT 57.048981 22.381296 27,425 289 399 1472
2022-12-04 12:19:06 GMT 57.044632 22.404814 27,250 289 397 1408
2022-12-04 12:18:57 GMT 57.039825 22.430649 27,050 289 395 1472
2022-12-04 12:18:52 GMT 57.036438 22.448931 26,900 289 394 1408
2022-12-04 12:18:45 GMT 57.032452 22.470142 26,750 289 392 1408
2022-12-04 12:18:38 GMT 57.028309 22.492292 26,575 289 391 1600
2022-12-04 12:18:35 GMT 57.026817 22.500355 26,500 289 390 1472
2022-12-04 12:18:31 GMT 57.024769 22.511341 26,425 290 389 1344
2022-12-04 12:18:27 GMT 57.022339 22.524118 26,325 290 388 1344
2022-12-04 12:18:21 GMT 57.018219 22.546177 26,150 290 386 1664
2022-12-04 12:18:16 GMT 57.015244 22.561798 26,025 289 384 1664
2022-12-04 12:18:10 GMT 57.011765 22.580509 25,850 290 383 1664
2022-12-04 12:18:05 GMT 57.009266 22.593739 25,725 290 382 1728
2022-12-04 12:17:54 GMT 57.003067 22.626686 25,400 289 381 1920
2022-12-04 12:17:45 GMT 56.997910 22.654251 25,125 290 380 1920
2022-12-04 12:17:34 GMT 56.991718 22.687300 24,750 289 378 2112
2022-12-04 12:17:10 GMT 56.977798 22.761368 23,900 290 376 2112
2022-12-04 12:17:03 GMT 56.973980 22.781481 23,650 290 375 2176
2022-12-04 12:16:55 GMT 56.968719 22.809122 23,325 290 374 2112
2022-12-04 12:16:44 GMT 56.963039 22.838982 22,975 290 372 2112
2022-12-04 12:16:33 GMT 56.956944 22.870966 22,575 290 371 2240
2022-12-04 12:16:20 GMT 56.949188 22.911386 22,100 290 369 2048
2022-12-04 12:16:14 GMT 56.946190 22.927225 21,900 290 367 2176
2022-12-04 12:16:00 GMT 56.938553 22.967184 21,375 290 365 2304
2022-12-04 12:15:53 GMT 56.934265 22.989578 21,100 290 364 2240
2022-12-04 12:15:43 GMT 56.929321 23.015585 20,750 290 362 2240
2022-12-04 12:15:30 GMT 56.921188 23.058088 20,175 290 360 2432
2022-12-04 12:15:23 GMT 56.917839 23.075275 19,950 290 357 2304
2022-12-04 12:15:12 GMT 56.912018 23.105223 19,525 290 355 2560
2022-12-04 12:15:02 GMT 56.906342 23.134195 19,075 290 354 2560
2022-12-04 12:14:52 GMT 56.901127 23.161129 18,650 290 353 2752
2022-12-04 12:14:42 GMT 56.895218 23.191452 18,150 290 352 2752
2022-12-04 12:14:33 GMT 56.890278 23.216948 17,750 290 350 2688
2022-12-04 12:14:20 GMT 56.883717 23.250879 17,225 290 349 2560
2022-12-04 12:14:13 GMT 56.879059 23.274879 16,850 290 344 2560
2022-12-04 12:14:01 GMT 56.873333 23.304394 16,375 290 342 2752
2022-12-04 12:13:51 GMT 56.868027 23.331614 15,925 290 340 2752
2022-12-04 12:13:42 GMT 56.863186 23.356668 15,475 290 338 2816
2022-12-04 12:13:31 GMT 56.857506 23.385817 14,975 290 335 2880
2022-12-04 12:13:21 GMT 56.852371 23.411951 14,500 290 334 3136
2022-12-04 12:13:11 GMT 56.847359 23.437292 14,025 290 333 2944
2022-12-04 12:13:02 GMT 56.842209 23.463449 13,525 290 330 2944
2022-12-04 12:12:51 GMT 56.836853 23.490572 12,975 290 329 3264
2022-12-04 12:12:40 GMT 56.831299 23.518717 12,425 290 327 3008
2022-12-04 12:12:31 GMT 56.826462 23.543100 11,950 290 325 2816
2022-12-04 12:12:21 GMT 56.821289 23.568953 11,475 290 322 2688
2022-12-04 12:12:10 GMT 56.815933 23.596144 11,025 290 315 2112
2022-12-04 12:12:00 GMT 56.811142 23.620518 10,825 290 303 960
2022-12-04 12:11:50 GMT 56.806484 23.644350 10,650 290 285 960
2022-12-04 12:11:39 GMT 56.801422 23.670130 10,450 290 269 1664
2022-12-04 12:11:30 GMT 56.797966 23.687853 10,100 290 264 3008
2022-12-04 12:11:18 GMT 56.792496 23.715620 9,425 291 262 3072
2022-12-04 12:11:10 GMT 56.789841 23.728323 9,125 292 260 3072
2022-12-04 12:10:59 GMT 56.784805 23.751926 8,475 287 257 3392
2022-12-04 12:10:50 GMT 56.782654 23.771582 7,925 273 254 3584
2022-12-04 12:10:39 GMT 56.783535 23.793020 7,300 257 253 3648
2022-12-04 12:10:25 GMT 56.791260 23.821535 6,425 234 252 3584
2022-12-04 12:10:18 GMT 56.796246 23.833244 6,000 233 252 3264
2022-12-04 12:10:09 GMT 56.801922 23.846535 5,650 232 246 2048
2022-12-04 12:10:00 GMT 56.809093 23.863192 5,425 232 231 1216
2022-12-04 12:09:49 GMT 56.815292 23.877668 5,075 233 224 3072
2022-12-04 12:09:39 GMT 56.821987 23.893227 4,575 232 221 2624
2022-12-04 12:09:29 GMT 56.828224 23.907757 4,175 233 217 2112
2022-12-04 12:09:19 GMT 56.834415 23.922375 3,725 233 213 2432

Making use of Plane Finder data

You are free to use the raw flight data, aircraft information and images provided in this report for your own purposes provided the data is correctly attributed to Plane Finder. We ask that you please credit Plane Finder and link to planefinder.net in close proximity to the content.

Optionally one of the following logos (no smaller then 150x24px) can be used and must link to planefinder.net

Embedding the Plane Finder map

You are welcome to embed the Plane Finder playback map on your website to offer visitors a more interactive experience. We suggest using the following HTML code:

<iframe src="//planefinder.net/data/report/FR5115-9H-QBQ-7700-squawk-2022-12-04/map" width="800" height="600" seamless="seamless"></iframe>

Where our data comes from

Plane Finder has a global network of data feeds and antenna radars that receive data broadcast directly from aircraft. The primary technologies used are ADS-B and MLAT. We also show feeds from the FAA and a FLARM glider feed.

Click here to find out more about the Plane Finder network.

How we collect our data